<?xml version="1.0" encoding="UTF-8"?>
<gpx xmlns="http://www.topografix.com/GPX/1/1" xmlns:xsi="http://www.w3.org/2001/XMLSchema-instance" version="1.1" xsi:schemaLocation="http://www.topografix.com/GPX/1/1 http://www.topografix.com/GPX/1/1/gpx.xsd">
  <metadata>
    <name>Cal Tri Culpeper - Olympic SwimBike</name>
  </metadata>
  <trk>
    <name>Cal Tri Culpeper - Olympic SwimBike</name>
    <trkseg>
      <trkpt lat="38.479934" lon="-78.06924">
        <ele>141.230863</ele>
        <time>2023-06-11T08:50:00.000Z</time>
      </trkpt>
      <trkpt lat="38.479976" lon="-78.069177">
        <ele>141.230853</ele>
        <time>2023-06-11T08:50:01.000Z</time>
      </trkpt>
      <trkpt lat="38.480067" lon="-78.069199">
        <ele>141.230855</ele>
        <time>2023-06-11T08:50:02.000Z</time>
      </trkpt>
      <trkpt lat="38.480217" lon="-78.069258">
        <ele>141.230861</ele>
        <time>2023-06-11T08:50:04.000Z</time>
      </trkpt>
      <trkpt lat="38.480264" lon="-78.069279">
        <ele>141.230866</ele>
        <time>2023-06-11T08:50:05.000Z</time>
      </trkpt>
      <trkpt lat="38.480328" lon="-78.069241">
        <ele>141.230866</ele>
        <time>2023-06-11T08:50:06.000Z</time>
      </trkpt>
      <trkpt lat="38.480334" lon="-78.069247">
        <ele>141.230854</ele>
        <time>2023-06-11T08:50:06.000Z</time>
      </trkpt>
      <trkpt lat="38.480614" lon="-78.069091">
        <ele>141.23085</ele>
        <time>2023-06-11T08:50:09.000Z</time>
      </trkpt>
      <trkpt lat="38.480824" lon="-78.068981">
        <ele>141.389726</ele>
        <time>2023-06-11T08:50:12.000Z</time>
      </trkpt>
      <trkpt lat="38.480867" lon="-78.068965">
        <ele>141.495109</ele>
        <time>2023-06-11T08:50:12.000Z</time>
      </trkpt>
      <trkpt lat="38.480995" lon="-78.068923">
        <ele>141.799332</ele>
        <time>2023-06-11T08:50:13.000Z</time>
      </trkpt>
      <trkpt lat="38.481004" lon="-78.068921">
        <ele>141.82387</ele>
        <time>2023-06-11T08:50:13.000Z</time>
      </trkpt>
      <trkpt lat="38.481153" lon="-78.068894">
        <ele>142.196319</ele>
        <time>2023-06-11T08:50:15.000Z</time>
      </trkpt>
      <trkpt lat="38.481171" lon="-78.068891">
        <ele>142.269914</ele>
        <time>2023-06-11T08:50:15.000Z</time>
      </trkpt>
      <trkpt lat="38.481366" lon="-78.068882">
        <ele>142.71313</ele>
        <time>2023-06-11T08:50:17.000Z</time>
      </trkpt>
      <trkpt lat="38.481431" lon="-78.06887">
        <ele>142.910319</ele>
        <time>2023-06-11T08:50:18.000Z</time>
      </trkpt>
      <trkpt lat="38.482087" lon="-78.068813">
        <ele>144.483251</ele>
        <time>2023-06-11T08:50:25.000Z</time>
      </trkpt>
      <trkpt lat="38.482222" lon="-78.068813">
        <ele>144.851717</ele>
        <time>2023-06-11T08:50:27.000Z</time>
      </trkpt>
      <trkpt lat="38.482252" lon="-78.068809">
        <ele>144.90078</ele>
        <time>2023-06-11T08:50:27.000Z</time>
      </trkpt>
      <trkpt lat="38.482609" lon="-78.068802">
        <ele>145.618505</ele>
        <time>2023-06-11T08:50:31.000Z</time>
      </trkpt>
      <trkpt lat="38.482704" lon="-78.068804">
        <ele>145.566378</ele>
        <time>2023-06-11T08:50:32.000Z</time>
      </trkpt>
      <trkpt lat="38.482795" lon="-78.068783">
        <ele>145.513791</ele>
        <time>2023-06-11T08:50:33.000Z</time>
      </trkpt>
      <trkpt lat="38.482898" lon="-78.068946">
        <ele>145.433351</ele>
        <time>2023-06-11T08:50:35.000Z</time>
      </trkpt>
      <trkpt lat="38.482924" lon="-78.068919">
        <ele>145.418003</ele>
        <time>2023-06-11T08:50:35.000Z</time>
      </trkpt>
      <trkpt lat="38.483061" lon="-78.068756">
        <ele>145.319223</ele>
        <time>2023-06-11T08:50:37.000Z</time>
      </trkpt>
      <trkpt lat="38.483004" lon="-78.068654">
        <ele>145.270472</ele>
        <time>2023-06-11T08:50:38.000Z</time>
      </trkpt>
      <trkpt lat="38.482334" lon="-78.067327">
        <ele>144.419454</ele>
        <time>2023-06-11T08:50:52.000Z</time>
      </trkpt>
      <trkpt lat="38.482154" lon="-78.067012">
        <ele>143.84316</ele>
        <time>2023-06-11T08:50:55.000Z</time>
      </trkpt>
      <trkpt lat="38.481819" lon="-78.066624">
        <ele>142.966963</ele>
        <time>2023-06-11T08:51:00.000Z</time>
      </trkpt>
      <trkpt lat="38.480978" lon="-78.066023">
        <ele>141.494188</ele>
        <time>2023-06-11T08:51:11.000Z</time>
      </trkpt>
      <trkpt lat="38.48073" lon="-78.065824">
        <ele>142.126464</ele>
        <time>2023-06-11T08:51:14.000Z</time>
      </trkpt>
      <trkpt lat="38.480405" lon="-78.065538">
        <ele>142.995183</ele>
        <time>2023-06-11T08:51:18.000Z</time>
      </trkpt>
      <trkpt lat="38.480224" lon="-78.065276">
        <ele>143.588049</ele>
        <time>2023-06-11T08:51:21.000Z</time>
      </trkpt>
      <trkpt lat="38.480061" lon="-78.064957">
        <ele>144.213493</ele>
        <time>2023-06-11T08:51:24.000Z</time>
      </trkpt>
      <trkpt lat="38.479552" lon="-78.063905">
        <ele>147.272581</ele>
        <time>2023-06-11T08:51:35.000Z</time>
      </trkpt>
      <trkpt lat="38.478935" lon="-78.062856">
        <ele>151.378159</ele>
        <time>2023-06-11T08:51:46.000Z</time>
      </trkpt>
      <trkpt lat="38.478495" lon="-78.062173">
        <ele>154.094734</ele>
        <time>2023-06-11T08:51:54.000Z</time>
      </trkpt>
      <trkpt lat="38.477282" lon="-78.060514">
        <ele>160.962796</ele>
        <time>2023-06-11T08:52:14.000Z</time>
      </trkpt>
      <trkpt lat="38.477149" lon="-78.0604">
        <ele>161.575415</ele>
        <time>2023-06-11T08:52:16.000Z</time>
      </trkpt>
      <trkpt lat="38.476978" lon="-78.060343">
        <ele>162.196282</ele>
        <time>2023-06-11T08:52:18.000Z</time>
      </trkpt>
      <trkpt lat="38.476762" lon="-78.060363">
        <ele>162.946221</ele>
        <time>2023-06-11T08:52:20.000Z</time>
      </trkpt>
      <trkpt lat="38.476366" lon="-78.060439">
        <ele>164.316588</ele>
        <time>2023-06-11T08:52:24.000Z</time>
      </trkpt>
      <trkpt lat="38.476059" lon="-78.060557">
        <ele>165.452388</ele>
        <time>2023-06-11T08:52:28.000Z</time>
      </trkpt>
      <trkpt lat="38.475358" lon="-78.061006">
        <ele>166.7476</ele>
        <time>2023-06-11T08:52:37.000Z</time>
      </trkpt>
      <trkpt lat="38.474913" lon="-78.061299">
        <ele>167.382925</ele>
        <time>2023-06-11T08:52:43.000Z</time>
      </trkpt>
      <trkpt lat="38.474487" lon="-78.061567">
        <ele>168.000021</ele>
        <time>2023-06-11T08:52:48.000Z</time>
      </trkpt>
      <trkpt lat="38.473614" lon="-78.062035">
        <ele>168.594122</ele>
        <time>2023-06-11T08:52:59.000Z</time>
      </trkpt>
      <trkpt lat="38.473208" lon="-78.062332">
        <ele>168.821633</ele>
        <time>2023-06-11T08:53:04.000Z</time>
      </trkpt>
      <trkpt lat="38.472972" lon="-78.062468">
        <ele>168.951017</ele>
        <time>2023-06-11T08:53:07.000Z</time>
      </trkpt>
      <trkpt lat="38.472727" lon="-78.062592">
        <ele>169.086861</ele>
        <time>2023-06-11T08:53:10.000Z</time>
      </trkpt>
      <trkpt lat="38.472519" lon="-78.062666">
        <ele>169.126939</ele>
        <time>2023-06-11T08:53:12.000Z</time>
      </trkpt>
      <trkpt lat="38.472119" lon="-78.062777">
        <ele>169.192112</ele>
        <time>2023-06-11T08:53:17.000Z</time>
      </trkpt>
      <trkpt lat="38.471804" lon="-78.062792">
        <ele>169.243027</ele>
        <time>2023-06-11T08:53:21.000Z</time>
      </trkpt>
      <trkpt lat="38.471464" lon="-78.06272">
        <ele>169.300292</ele>
        <time>2023-06-11T08:53:25.000Z</time>
      </trkpt>
      <trkpt lat="38.470909" lon="-78.062438">
        <ele>169.383379</ele>
        <time>2023-06-11T08:53:32.000Z</time>
      </trkpt>
      <trkpt lat="38.470834" lon="-78.062404">
        <ele>169.38246</ele>
        <time>2023-06-11T08:53:33.000Z</time>
      </trkpt>
      <trkpt lat="38.470786" lon="-78.062623">
        <ele>169.379962</ele>
        <time>2023-06-11T08:53:35.000Z</time>
      </trkpt>
      <trkpt lat="38.470705" lon="-78.063646">
        <ele>169.368934</ele>
        <time>2023-06-11T08:53:44.000Z</time>
      </trkpt>
      <trkpt lat="38.470545" lon="-78.065724">
        <ele>168.635338</ele>
        <time>2023-06-11T08:54:02.000Z</time>
      </trkpt>
      <trkpt lat="38.470491" lon="-78.066087">
        <ele>168.414318</ele>
        <time>2023-06-11T08:54:05.000Z</time>
      </trkpt>
      <trkpt lat="38.47038" lon="-78.066448">
        <ele>168.184386</ele>
        <time>2023-06-11T08:54:08.000Z</time>
      </trkpt>
      <trkpt lat="38.470278" lon="-78.066606">
        <ele>168.06781</ele>
        <time>2023-06-11T08:54:10.000Z</time>
      </trkpt>
      <trkpt lat="38.470127" lon="-78.06675">
        <ele>167.909766</ele>
        <time>2023-06-11T08:54:12.000Z</time>
      </trkpt>
      <trkpt lat="38.469704" lon="-78.066945">
        <ele>167.5132</ele>
        <time>2023-06-11T08:54:17.000Z</time>
      </trkpt>
      <trkpt lat="38.469009" lon="-78.067085">
        <ele>166.898796</ele>
        <time>2023-06-11T08:54:25.000Z</time>
      </trkpt>
      <trkpt lat="38.468558" lon="-78.067183">
        <ele>166.49752</ele>
        <time>2023-06-11T08:54:30.000Z</time>
      </trkpt>
      <trkpt lat="38.468221" lon="-78.067292">
        <ele>166.530952</ele>
        <time>2023-06-11T08:54:34.000Z</time>
      </trkpt>
      <trkpt lat="38.467721" lon="-78.067515">
        <ele>166.763133</ele>
        <time>2023-06-11T08:54:40.000Z</time>
      </trkpt>
      <trkpt lat="38.467138" lon="-78.067891">
        <ele>167.048309</ele>
        <time>2023-06-11T08:54:47.000Z</time>
      </trkpt>
      <trkpt lat="38.46708" lon="-78.067929">
        <ele>167.076313</ele>
        <time>2023-06-11T08:54:48.000Z</time>
      </trkpt>
      <trkpt lat="38.466683" lon="-78.068221">
        <ele>167.310883</ele>
        <time>2023-06-11T08:54:53.000Z</time>
      </trkpt>
      <trkpt lat="38.465786" lon="-78.068901">
        <ele>167.97589</ele>
        <time>2023-06-11T08:55:05.000Z</time>
      </trkpt>
      <trkpt lat="38.465132" lon="-78.06936">
        <ele>168.303929</ele>
        <time>2023-06-11T08:55:13.000Z</time>
      </trkpt>
      <trkpt lat="38.464458" lon="-78.069837">
        <ele>168.122338</ele>
        <time>2023-06-11T08:55:22.000Z</time>
      </trkpt>
      <trkpt lat="38.464302" lon="-78.069958">
        <ele>168.077081</ele>
        <time>2023-06-11T08:55:24.000Z</time>
      </trkpt>
      <trkpt lat="38.463879" lon="-78.070282">
        <ele>167.963855</ele>
        <time>2023-06-11T08:55:29.000Z</time>
      </trkpt>
      <trkpt lat="38.463221" lon="-78.070756">
        <ele>167.869643</ele>
        <time>2023-06-11T08:55:37.000Z</time>
      </trkpt>
      <trkpt lat="38.46322" lon="-78.070774">
        <ele>167.867967</ele>
        <time>2023-06-11T08:55:37.000Z</time>
      </trkpt>
      <trkpt lat="38.462818" lon="-78.07105">
        <ele>167.828585</ele>
        <time>2023-06-11T08:55:42.000Z</time>
      </trkpt>
      <trkpt lat="38.462437" lon="-78.07121">
        <ele>167.794649</ele>
        <time>2023-06-11T08:55:46.000Z</time>
      </trkpt>
      <trkpt lat="38.462277" lon="-78.071228">
        <ele>167.780844</ele>
        <time>2023-06-11T08:55:48.000Z</time>
      </trkpt>
      <trkpt lat="38.462148" lon="-78.071209">
        <ele>167.76908</ele>
        <time>2023-06-11T08:55:49.000Z</time>
      </trkpt>
      <trkpt lat="38.46177" lon="-78.071094">
        <ele>167.728299</ele>
        <time>2023-06-11T08:55:53.000Z</time>
      </trkpt>
      <trkpt lat="38.461518" lon="-78.071028">
        <ele>167.700517</ele>
        <time>2023-06-11T08:55:56.000Z</time>
      </trkpt>
      <trkpt lat="38.461271" lon="-78.070975">
        <ele>167.673368</ele>
        <time>2023-06-11T08:55:59.000Z</time>
      </trkpt>
      <trkpt lat="38.461179" lon="-78.070985">
        <ele>167.663525</ele>
        <time>2023-06-11T08:56:00.000Z</time>
      </trkpt>
      <trkpt lat="38.461023" lon="-78.071001">
        <ele>167.646191</ele>
        <time>2023-06-11T08:56:02.000Z</time>
      </trkpt>
      <trkpt lat="38.460798" lon="-78.071098">
        <ele>167.621572</ele>
        <time>2023-06-11T08:56:05.000Z</time>
      </trkpt>
      <trkpt lat="38.459541" lon="-78.071824">
        <ele>166.25081</ele>
        <time>2023-06-11T08:56:20.000Z</time>
      </trkpt>
      <trkpt lat="38.459795" lon="-78.072326">
        <ele>165.550457</ele>
        <time>2023-06-11T08:56:25.000Z</time>
      </trkpt>
      <trkpt lat="38.460072" lon="-78.072684">
        <ele>164.958861</ele>
        <time>2023-06-11T08:56:29.000Z</time>
      </trkpt>
      <trkpt lat="38.460518" lon="-78.073161">
        <ele>163.681221</ele>
        <time>2023-06-11T08:56:35.000Z</time>
      </trkpt>
      <trkpt lat="38.460689" lon="-78.073364">
        <ele>163.121066</ele>
        <time>2023-06-11T08:56:38.000Z</time>
      </trkpt>
      <trkpt lat="38.460883" lon="-78.073675">
        <ele>162.430824</ele>
        <time>2023-06-11T08:56:41.000Z</time>
      </trkpt>
      <trkpt lat="38.461171" lon="-78.074179">
        <ele>161.288994</ele>
        <time>2023-06-11T08:56:46.000Z</time>
      </trkpt>
      <trkpt lat="38.461338" lon="-78.074381">
        <ele>160.745877</ele>
        <time>2023-06-11T08:56:49.000Z</time>
      </trkpt>
      <trkpt lat="38.461485" lon="-78.074491">
        <ele>160.908971</ele>
        <time>2023-06-11T08:56:51.000Z</time>
      </trkpt>
      <trkpt lat="38.462144" lon="-78.074895">
        <ele>161.666296</ele>
        <time>2023-06-11T08:56:59.000Z</time>
      </trkpt>
      <trkpt lat="38.462415" lon="-78.075127">
        <ele>161.999836</ele>
        <time>2023-06-11T08:57:03.000Z</time>
      </trkpt>
      <trkpt lat="38.462469" lon="-78.075191">
        <ele>162.076029</ele>
        <time>2023-06-11T08:57:04.000Z</time>
      </trkpt>
      <trkpt lat="38.462595" lon="-78.075435">
        <ele>162.311916</ele>
        <time>2023-06-11T08:57:07.000Z</time>
      </trkpt>
      <trkpt lat="38.462863" lon="-78.076393">
        <ele>162.833638</ele>
        <time>2023-06-11T08:57:16.000Z</time>
      </trkpt>
      <trkpt lat="38.463012" lon="-78.0769">
        <ele>163.019618</ele>
        <time>2023-06-11T08:57:21.000Z</time>
      </trkpt>
      <trkpt lat="38.463179" lon="-78.077501">
        <ele>163.244032</ele>
        <time>2023-06-11T08:57:27.000Z</time>
      </trkpt>
      <trkpt lat="38.463244" lon="-78.07774">
        <ele>163.329729</ele>
        <time>2023-06-11T08:57:29.000Z</time>
      </trkpt>
      <trkpt lat="38.463724" lon="-78.079343">
        <ele>158.655078</ele>
        <time>2023-06-11T08:57:44.000Z</time>
      </trkpt>
      <trkpt lat="38.463867" lon="-78.079725">
        <ele>157.353381</ele>
        <time>2023-06-11T08:57:48.000Z</time>
      </trkpt>
      <trkpt lat="38.463991" lon="-78.07993">
        <ele>156.516446</ele>
        <time>2023-06-11T08:57:50.000Z</time>
      </trkpt>
      <trkpt lat="38.464062" lon="-78.080022">
        <ele>156.184163</ele>
        <time>2023-06-11T08:57:51.000Z</time>
      </trkpt>
      <trkpt lat="38.464232" lon="-78.080127">
        <ele>155.942703</ele>
        <time>2023-06-11T08:57:53.000Z</time>
      </trkpt>
      <trkpt lat="38.464528" lon="-78.080229">
        <ele>155.526568</ele>
        <time>2023-06-11T08:57:56.000Z</time>
      </trkpt>
      <trkpt lat="38.46488" lon="-78.080381">
        <ele>155.029552</ele>
        <time>2023-06-11T08:58:00.000Z</time>
      </trkpt>
      <trkpt lat="38.465688" lon="-78.080791">
        <ele>153.897053</ele>
        <time>2023-06-11T08:58:10.000Z</time>
      </trkpt>
      <trkpt lat="38.465989" lon="-78.080952">
        <ele>154.802484</ele>
        <time>2023-06-11T08:58:14.000Z</time>
      </trkpt>
      <trkpt lat="38.46636" lon="-78.081141">
        <ele>156.075902</ele>
        <time>2023-06-11T08:58:18.000Z</time>
      </trkpt>
      <trkpt lat="38.466851" lon="-78.081366">
        <ele>157.784647</ele>
        <time>2023-06-11T08:58:24.000Z</time>
      </trkpt>
      <trkpt lat="38.46742" lon="-78.081667">
        <ele>159.738975</ele>
        <time>2023-06-11T08:58:31.000Z</time>
      </trkpt>
      <trkpt lat="38.4686" lon="-78.082664">
        <ele>163.002202</ele>
        <time>2023-06-11T08:58:47.000Z</time>
      </trkpt>
      <trkpt lat="38.468728" lon="-78.08269">
        <ele>163.324946</ele>
        <time>2023-06-11T08:58:48.000Z</time>
      </trkpt>
      <trkpt lat="38.468915" lon="-78.082659">
        <ele>163.748319</ele>
        <time>2023-06-11T08:58:50.000Z</time>
      </trkpt>
      <trkpt lat="38.469153" lon="-78.082569">
        <ele>163.86399</ele>
        <time>2023-06-11T08:58:53.000Z</time>
      </trkpt>
      <trkpt lat="38.469676" lon="-78.082371">
        <ele>163.923731</ele>
        <time>2023-06-11T08:58:59.000Z</time>
      </trkpt>
      <trkpt lat="38.47024" lon="-78.08213">
        <ele>163.990022</ele>
        <time>2023-06-11T08:59:06.000Z</time>
      </trkpt>
      <trkpt lat="38.470884" lon="-78.081853">
        <ele>163.69216</ele>
        <time>2023-06-11T08:59:14.000Z</time>
      </trkpt>
      <trkpt lat="38.471244" lon="-78.081736">
        <ele>163.157144</ele>
        <time>2023-06-11T08:59:18.000Z</time>
      </trkpt>
      <trkpt lat="38.47157" lon="-78.081721">
        <ele>162.679272</ele>
        <time>2023-06-11T08:59:22.000Z</time>
      </trkpt>
      <trkpt lat="38.472053" lon="-78.08179">
        <ele>161.963639</ele>
        <time>2023-06-11T08:59:27.000Z</time>
      </trkpt>
      <trkpt lat="38.472365" lon="-78.081766">
        <ele>161.529377</ele>
        <time>2023-06-11T08:59:30.000Z</time>
      </trkpt>
      <trkpt lat="38.473935" lon="-78.081069">
        <ele>157.666409</ele>
        <time>2023-06-11T08:59:48.000Z</time>
      </trkpt>
      <trkpt lat="38.474275" lon="-78.080958">
        <ele>157.029465</ele>
        <time>2023-06-11T08:59:52.000Z</time>
      </trkpt>
      <trkpt lat="38.474538" lon="-78.080961">
        <ele>156.737325</ele>
        <time>2023-06-11T08:59:55.000Z</time>
      </trkpt>
      <trkpt lat="38.474827" lon="-78.081065">
        <ele>156.374628</ele>
        <time>2023-06-11T08:59:58.000Z</time>
      </trkpt>
      <trkpt lat="38.475003" lon="-78.081287">
        <ele>156.096334</ele>
        <time>2023-06-11T09:00:01.000Z</time>
      </trkpt>
      <trkpt lat="38.475161" lon="-78.08178">
        <ele>155.603027</ele>
        <time>2023-06-11T09:00:06.000Z</time>
      </trkpt>
      <trkpt lat="38.475371" lon="-78.082311">
        <ele>155.1217</ele>
        <time>2023-06-11T09:00:11.000Z</time>
      </trkpt>
      <trkpt lat="38.475635" lon="-78.082891">
        <ele>155.361947</ele>
        <time>2023-06-11T09:00:17.000Z</time>
      </trkpt>
      <trkpt lat="38.475813" lon="-78.083428">
        <ele>155.564105</ele>
        <time>2023-06-11T09:00:22.000Z</time>
      </trkpt>
      <trkpt lat="38.475849" lon="-78.083817">
        <ele>155.701649</ele>
        <time>2023-06-11T09:00:25.000Z</time>
      </trkpt>
      <trkpt lat="38.47585" lon="-78.08461">
        <ele>155.401645</ele>
        <time>2023-06-11T09:00:32.000Z</time>
      </trkpt>
      <trkpt lat="38.475838" lon="-78.085007">
        <ele>154.390787</ele>
        <time>2023-06-11T09:00:35.000Z</time>
      </trkpt>
      <trkpt lat="38.475843" lon="-78.085378">
        <ele>153.409214</ele>
        <time>2023-06-11T09:00:38.000Z</time>
      </trkpt>
      <trkpt lat="38.475894" lon="-78.087175">
        <ele>148.326013</ele>
        <time>2023-06-11T09:00:54.000Z</time>
      </trkpt>
      <trkpt lat="38.475926" lon="-78.087825">
        <ele>146.085069</ele>
        <time>2023-06-11T09:01:00.000Z</time>
      </trkpt>
      <trkpt lat="38.476028" lon="-78.089613">
        <ele>142.415134</ele>
        <time>2023-06-11T09:01:16.000Z</time>
      </trkpt>
      <trkpt lat="38.476042" lon="-78.09047">
        <ele>143.038127</ele>
        <time>2023-06-11T09:01:23.000Z</time>
      </trkpt>
      <trkpt lat="38.476065" lon="-78.09115">
        <ele>143.528918</ele>
        <time>2023-06-11T09:01:29.000Z</time>
      </trkpt>
      <trkpt lat="38.476068" lon="-78.09148">
        <ele>144.05436</ele>
        <time>2023-06-11T09:01:32.000Z</time>
      </trkpt>
      <trkpt lat="38.476069" lon="-78.092103">
        <ele>145.58291</ele>
        <time>2023-06-11T09:01:37.000Z</time>
      </trkpt>
      <trkpt lat="38.475958" lon="-78.092808">
        <ele>147.323985</ele>
        <time>2023-06-11T09:01:43.000Z</time>
      </trkpt>
      <trkpt lat="38.475928" lon="-78.093481">
        <ele>148.924009</ele>
        <time>2023-06-11T09:01:49.000Z</time>
      </trkpt>
      <trkpt lat="38.475922" lon="-78.09385">
        <ele>149.073423</ele>
        <time>2023-06-11T09:01:52.000Z</time>
      </trkpt>
      <trkpt lat="38.476061" lon="-78.09471">
        <ele>148.67828</ele>
        <time>2023-06-11T09:02:00.000Z</time>
      </trkpt>
      <trkpt lat="38.475957" lon="-78.095977">
        <ele>148.172259</ele>
        <time>2023-06-11T09:02:11.000Z</time>
      </trkpt>
      <trkpt lat="38.475951" lon="-78.096315">
        <ele>148.224448</ele>
        <time>2023-06-11T09:02:14.000Z</time>
      </trkpt>
      <trkpt lat="38.475964" lon="-78.096794">
        <ele>148.300233</ele>
        <time>2023-06-11T09:02:18.000Z</time>
      </trkpt>
      <trkpt lat="38.476029" lon="-78.097288">
        <ele>148.376892</ele>
        <time>2023-06-11T09:02:22.000Z</time>
      </trkpt>
      <trkpt lat="38.476098" lon="-78.09766">
        <ele>148.437546</ele>
        <time>2023-06-11T09:02:25.000Z</time>
      </trkpt>
      <trkpt lat="38.475567" lon="-78.097832">
        <ele>149.160956</ele>
        <time>2023-06-11T09:02:31.000Z</time>
      </trkpt>
      <trkpt lat="38.473715" lon="-78.098414">
        <ele>156.453622</ele>
        <time>2023-06-11T09:02:52.000Z</time>
      </trkpt>
      <trkpt lat="38.472084" lon="-78.098917">
        <ele>161.130206</ele>
        <time>2023-06-11T09:03:11.000Z</time>
      </trkpt>
      <trkpt lat="38.471154" lon="-78.099306">
        <ele>161.959319</ele>
        <time>2023-06-11T09:03:22.000Z</time>
      </trkpt>
      <trkpt lat="38.470651" lon="-78.099558">
        <ele>162.41749</ele>
        <time>2023-06-11T09:03:28.000Z</time>
      </trkpt>
      <trkpt lat="38.470392" lon="-78.099793">
        <ele>162.781666</ele>
        <time>2023-06-11T09:03:32.000Z</time>
      </trkpt>
      <trkpt lat="38.470335" lon="-78.099872">
        <ele>162.918668</ele>
        <time>2023-06-11T09:03:33.000Z</time>
      </trkpt>
      <trkpt lat="38.470171" lon="-78.100153">
        <ele>163.294071</ele>
        <time>2023-06-11T09:03:36.000Z</time>
      </trkpt>
      <trkpt lat="38.470075" lon="-78.100491">
        <ele>163.695274</ele>
        <time>2023-06-11T09:03:39.000Z</time>
      </trkpt>
      <trkpt lat="38.470028" lon="-78.100832">
        <ele>164.092666</ele>
        <time>2023-06-11T09:03:42.000Z</time>
      </trkpt>
      <trkpt lat="38.469974" lon="-78.101538">
        <ele>164.887701</ele>
        <time>2023-06-11T09:03:48.000Z</time>
      </trkpt>
      <trkpt lat="38.470005" lon="-78.101988">
        <ele>165.510884</ele>
        <time>2023-06-11T09:03:52.000Z</time>
      </trkpt>
      <trkpt lat="38.470082" lon="-78.102386">
        <ele>166.183941</ele>
        <time>2023-06-11T09:03:56.000Z</time>
      </trkpt>
      <trkpt lat="38.470233" lon="-78.102906">
        <ele>167.076387</ele>
        <time>2023-06-11T09:04:01.000Z</time>
      </trkpt>
      <trkpt lat="38.470431" lon="-78.103685">
        <ele>168.408707</ele>
        <time>2023-06-11T09:04:08.000Z</time>
      </trkpt>
      <trkpt lat="38.470496" lon="-78.103881">
        <ele>168.720889</ele>
        <time>2023-06-11T09:04:10.000Z</time>
      </trkpt>
      <trkpt lat="38.470689" lon="-78.104708">
        <ele>169.493194</ele>
        <time>2023-06-11T09:04:18.000Z</time>
      </trkpt>
      <trkpt lat="38.47069" lon="-78.10497">
        <ele>169.735834</ele>
        <time>2023-06-11T09:04:20.000Z</time>
      </trkpt>
      <trkpt lat="38.47066" lon="-78.105219">
        <ele>169.944542</ele>
        <time>2023-06-11T09:04:22.000Z</time>
      </trkpt>
      <trkpt lat="38.470555" lon="-78.10547">
        <ele>170.19853</ele>
        <time>2023-06-11T09:04:24.000Z</time>
      </trkpt>
      <trkpt lat="38.4704" lon="-78.105712">
        <ele>170.478594</ele>
        <time>2023-06-11T09:04:27.000Z</time>
      </trkpt>
      <trkpt lat="38.469942" lon="-78.106241">
        <ele>170.942095</ele>
        <time>2023-06-11T09:04:34.000Z</time>
      </trkpt>
      <trkpt lat="38.469894" lon="-78.10629">
        <ele>170.969536</ele>
        <time>2023-06-11T09:04:35.000Z</time>
      </trkpt>
      <trkpt lat="38.469731" lon="-78.106532">
        <ele>171.086765</ele>
        <time>2023-06-11T09:04:38.000Z</time>
      </trkpt>
      <trkpt lat="38.469531" lon="-78.106951">
        <ele>171.27278</ele>
        <time>2023-06-11T09:04:42.000Z</time>
      </trkpt>
      <trkpt lat="38.469494" lon="-78.107031">
        <ele>171.313297</ele>
        <time>2023-06-11T09:04:43.000Z</time>
      </trkpt>
      <trkpt lat="38.46936" lon="-78.107272">
        <ele>171.417387</ele>
        <time>2023-06-11T09:04:46.000Z</time>
      </trkpt>
      <trkpt lat="38.469089" lon="-78.107827">
        <ele>171.715494</ele>
        <time>2023-06-11T09:04:52.000Z</time>
      </trkpt>
      <trkpt lat="38.468969" lon="-78.108141">
        <ele>172.0957</ele>
        <time>2023-06-11T09:04:55.000Z</time>
      </trkpt>
      <trkpt lat="38.468871" lon="-78.108453">
        <ele>172.462787</ele>
        <time>2023-06-11T09:04:58.000Z</time>
      </trkpt>
      <trkpt lat="38.468539" lon="-78.109648">
        <ele>173.837606</ele>
        <time>2023-06-11T09:05:09.000Z</time>
      </trkpt>
      <trkpt lat="38.468429" lon="-78.109947">
        <ele>174.154133</ele>
        <time>2023-06-11T09:05:12.000Z</time>
      </trkpt>
      <trkpt lat="38.468081" lon="-78.110748">
        <ele>174.630523</ele>
        <time>2023-06-11T09:05:20.000Z</time>
      </trkpt>
      <trkpt lat="38.467931" lon="-78.111067">
        <ele>174.831388</ele>
        <time>2023-06-11T09:05:23.000Z</time>
      </trkpt>
      <trkpt lat="38.467825" lon="-78.111278">
        <ele>174.953608</ele>
        <time>2023-06-11T09:05:25.000Z</time>
      </trkpt>
      <trkpt lat="38.467466" lon="-78.111933">
        <ele>175.268081</ele>
        <time>2023-06-11T09:05:32.000Z</time>
      </trkpt>
      <trkpt lat="38.467178" lon="-78.112338">
        <ele>174.960177</ele>
        <time>2023-06-11T09:05:37.000Z</time>
      </trkpt>
      <trkpt lat="38.466903" lon="-78.112633">
        <ele>174.704328</ele>
        <time>2023-06-11T09:05:41.000Z</time>
      </trkpt>
      <trkpt lat="38.466492" lon="-78.113042">
        <ele>174.327619</ele>
        <time>2023-06-11T09:05:47.000Z</time>
      </trkpt>
      <trkpt lat="38.466108" lon="-78.113325">
        <ele>174.041516</ele>
        <time>2023-06-11T09:05:52.000Z</time>
      </trkpt>
      <trkpt lat="38.465689" lon="-78.11353">
        <ele>174.25231</ele>
        <time>2023-06-11T09:05:57.000Z</time>
      </trkpt>
      <trkpt lat="38.464174" lon="-78.114109">
        <ele>175.300466</ele>
        <time>2023-06-11T09:06:15.000Z</time>
      </trkpt>
      <trkpt lat="38.46221" lon="-78.114723">
        <ele>178.305934</ele>
        <time>2023-06-11T09:06:37.000Z</time>
      </trkpt>
      <trkpt lat="38.462297" lon="-78.11491">
        <ele>178.499787</ele>
        <time>2023-06-11T09:06:39.000Z</time>
      </trkpt>
      <trkpt lat="38.462412" lon="-78.115036">
        <ele>178.651766</ele>
        <time>2023-06-11T09:06:41.000Z</time>
      </trkpt>
      <trkpt lat="38.464251" lon="-78.116136">
        <ele>179.980485</ele>
        <time>2023-06-11T09:07:04.000Z</time>
      </trkpt>
      <trkpt lat="38.465389" lon="-78.116946">
        <ele>180.083204</ele>
        <time>2023-06-11T09:07:18.000Z</time>
      </trkpt>
      <trkpt lat="38.46642" lon="-78.117585">
        <ele>179.860656</ele>
        <time>2023-06-11T09:07:31.000Z</time>
      </trkpt>
      <trkpt lat="38.466894" lon="-78.1179">
        <ele>179.372296</ele>
        <time>2023-06-11T09:07:37.000Z</time>
      </trkpt>
      <trkpt lat="38.467836" lon="-78.118222">
        <ele>178.318578</ele>
        <time>2023-06-11T09:07:48.000Z</time>
      </trkpt>
      <trkpt lat="38.468063" lon="-78.11833">
        <ele>178.05448</ele>
        <time>2023-06-11T09:07:51.000Z</time>
      </trkpt>
      <trkpt lat="38.468291" lon="-78.118499">
        <ele>177.803661</ele>
        <time>2023-06-11T09:07:54.000Z</time>
      </trkpt>
      <trkpt lat="38.468392" lon="-78.118609">
        <ele>177.700878</ele>
        <time>2023-06-11T09:07:55.000Z</time>
      </trkpt>
      <trkpt lat="38.468717" lon="-78.119122">
        <ele>177.317291</ele>
        <time>2023-06-11T09:08:01.000Z</time>
      </trkpt>
      <trkpt lat="38.469297" lon="-78.120241">
        <ele>176.583238</ele>
        <time>2023-06-11T09:08:13.000Z</time>
      </trkpt>
      <trkpt lat="38.469394" lon="-78.120405">
        <ele>176.86948</ele>
        <time>2023-06-11T09:08:15.000Z</time>
      </trkpt>
      <trkpt lat="38.469502" lon="-78.120545">
        <ele>177.108349</ele>
        <time>2023-06-11T09:08:17.000Z</time>
      </trkpt>
      <trkpt lat="38.469814" lon="-78.120822">
        <ele>177.748477</ele>
        <time>2023-06-11T09:08:21.000Z</time>
      </trkpt>
      <trkpt lat="38.47011" lon="-78.121114">
        <ele>178.358843</ele>
        <time>2023-06-11T09:08:25.000Z</time>
      </trkpt>
      <trkpt lat="38.47028" lon="-78.121412">
        <ele>178.851277</ele>
        <time>2023-06-11T09:08:28.000Z</time>
      </trkpt>
      <trkpt lat="38.470532" lon="-78.121949">
        <ele>179.701824</ele>
        <time>2023-06-11T09:08:33.000Z</time>
      </trkpt>
      <trkpt lat="38.470688" lon="-78.122192">
        <ele>180.323424</ele>
        <time>2023-06-11T09:08:36.000Z</time>
      </trkpt>
      <trkpt lat="38.470788" lon="-78.122287">
        <ele>180.647129</ele>
        <time>2023-06-11T09:08:37.000Z</time>
      </trkpt>
      <trkpt lat="38.471688" lon="-78.12295">
        <ele>183.244676</ele>
        <time>2023-06-11T09:08:49.000Z</time>
      </trkpt>
      <trkpt lat="38.472114" lon="-78.123157">
        <ele>184.39494</ele>
        <time>2023-06-11T09:08:54.000Z</time>
      </trkpt>
      <trkpt lat="38.472464" lon="-78.123317">
        <ele>185.378373</ele>
        <time>2023-06-11T09:08:58.000Z</time>
      </trkpt>
      <trkpt lat="38.47271" lon="-78.123445">
        <ele>186.09447</ele>
        <time>2023-06-11T09:09:01.000Z</time>
      </trkpt>
      <trkpt lat="38.474031" lon="-78.12402">
        <ele>189.389488</ele>
        <time>2023-06-11T09:09:17.000Z</time>
      </trkpt>
      <trkpt lat="38.474803" lon="-78.124345">
        <ele>190.702651</ele>
        <time>2023-06-11T09:09:26.000Z</time>
      </trkpt>
      <trkpt lat="38.475386" lon="-78.124626">
        <ele>191.665129</ele>
        <time>2023-06-11T09:09:33.000Z</time>
      </trkpt>
      <trkpt lat="38.475776" lon="-78.12485">
        <ele>191.294758</ele>
        <time>2023-06-11T09:09:38.000Z</time>
      </trkpt>
      <trkpt lat="38.476561" lon="-78.125435">
        <ele>190.5135</ele>
        <time>2023-06-11T09:09:48.000Z</time>
      </trkpt>
      <trkpt lat="38.477656" lon="-78.126288">
        <ele>189.937644</ele>
        <time>2023-06-11T09:10:02.000Z</time>
      </trkpt>
      <trkpt lat="38.478032" lon="-78.126638">
        <ele>189.840071</ele>
        <time>2023-06-11T09:10:07.000Z</time>
      </trkpt>
      <trkpt lat="38.479354" lon="-78.127868">
        <ele>191.736651</ele>
        <time>2023-06-11T09:10:25.000Z</time>
      </trkpt>
      <trkpt lat="38.47979" lon="-78.128361">
        <ele>192.793187</ele>
        <time>2023-06-11T09:10:31.000Z</time>
      </trkpt>
      <trkpt lat="38.479961" lon="-78.128585">
        <ele>192.883638</ele>
        <time>2023-06-11T09:10:34.000Z</time>
      </trkpt>
      <trkpt lat="38.480152" lon="-78.128928">
        <ele>192.798854</ele>
        <time>2023-06-11T09:10:38.000Z</time>
      </trkpt>
      <trkpt lat="38.480333" lon="-78.129278">
        <ele>192.713137</ele>
        <time>2023-06-11T09:10:42.000Z</time>
      </trkpt>
      <trkpt lat="38.48064" lon="-78.130162">
        <ele>192.515479</ele>
        <time>2023-06-11T09:10:50.000Z</time>
      </trkpt>
      <trkpt lat="38.480756" lon="-78.130394">
        <ele>192.458651</ele>
        <time>2023-06-11T09:10:52.000Z</time>
      </trkpt>
      <trkpt lat="38.480853" lon="-78.130497">
        <ele>192.306516</ele>
        <time>2023-06-11T09:10:53.000Z</time>
      </trkpt>
      <trkpt lat="38.480975" lon="-78.130492">
        <ele>192.176014</ele>
        <time>2023-06-11T09:10:54.000Z</time>
      </trkpt>
      <trkpt lat="38.481383" lon="-78.130255">
        <ele>191.645469</ele>
        <time>2023-06-11T09:10:59.000Z</time>
      </trkpt>
      <trkpt lat="38.48138" lon="-78.130261">
        <ele>191.643975</ele>
        <time>2023-06-11T09:10:59.000Z</time>
      </trkpt>
      <trkpt lat="38.484861" lon="-78.12811">
        <ele>186.926621</ele>
        <time>2023-06-11T09:11:42.000Z</time>
      </trkpt>
      <trkpt lat="38.485053" lon="-78.128017">
        <ele>186.667585</ele>
        <time>2023-06-11T09:11:44.000Z</time>
      </trkpt>
      <trkpt lat="38.485163" lon="-78.128">
        <ele>186.515472</ele>
        <time>2023-06-11T09:11:45.000Z</time>
      </trkpt>
      <trkpt lat="38.485246" lon="-78.128018">
        <ele>186.402643</ele>
        <time>2023-06-11T09:11:46.000Z</time>
      </trkpt>
      <trkpt lat="38.485498" lon="-78.127587">
        <ele>185.851943</ele>
        <time>2023-06-11T09:11:51.000Z</time>
      </trkpt>
      <trkpt lat="38.486545" lon="-78.125582">
        <ele>182.313496</ele>
        <time>2023-06-11T09:12:12.000Z</time>
      </trkpt>
      <trkpt lat="38.487343" lon="-78.124059">
        <ele>181.771211</ele>
        <time>2023-06-11T09:12:28.000Z</time>
      </trkpt>
      <trkpt lat="38.487856" lon="-78.123121">
        <ele>182.872776</ele>
        <time>2023-06-11T09:12:38.000Z</time>
      </trkpt>
      <trkpt lat="38.488226" lon="-78.12256">
        <ele>184.056629</ele>
        <time>2023-06-11T09:12:44.000Z</time>
      </trkpt>
      <trkpt lat="38.488492" lon="-78.122137">
        <ele>184.898299</ele>
        <time>2023-06-11T09:12:49.000Z</time>
      </trkpt>
      <trkpt lat="38.488742" lon="-78.121721">
        <ele>185.91734</ele>
        <time>2023-06-11T09:12:54.000Z</time>
      </trkpt>
      <trkpt lat="38.488887" lon="-78.121493">
        <ele>186.55474</ele>
        <time>2023-06-11T09:12:57.000Z</time>
      </trkpt>
      <trkpt lat="38.48969" lon="-78.120523">
        <ele>189.707454</ele>
        <time>2023-06-11T09:13:09.000Z</time>
      </trkpt>
      <trkpt lat="38.491738" lon="-78.118384">
        <ele>193.865002</ele>
        <time>2023-06-11T09:13:38.000Z</time>
      </trkpt>
      <trkpt lat="38.492599" lon="-78.117423">
        <ele>192.99713</ele>
        <time>2023-06-11T09:13:51.000Z</time>
      </trkpt>
      <trkpt lat="38.492749" lon="-78.117188">
        <ele>192.075659</ele>
        <time>2023-06-11T09:13:54.000Z</time>
      </trkpt>
      <trkpt lat="38.492985" lon="-78.116718">
        <ele>189.790346</ele>
        <time>2023-06-11T09:13:59.000Z</time>
      </trkpt>
      <trkpt lat="38.493371" lon="-78.115874">
        <ele>185.868377</ele>
        <time>2023-06-11T09:14:08.000Z</time>
      </trkpt>
      <trkpt lat="38.493378" lon="-78.115702">
        <ele>185.238024</ele>
        <time>2023-06-11T09:14:10.000Z</time>
      </trkpt>
      <trkpt lat="38.493288" lon="-78.115586">
        <ele>184.551294</ele>
        <time>2023-06-11T09:14:11.000Z</time>
      </trkpt>
      <trkpt lat="38.492921" lon="-78.115282">
        <ele>181.841363</ele>
        <time>2023-06-11T09:14:16.000Z</time>
      </trkpt>
      <trkpt lat="38.492101" lon="-78.114705">
        <ele>175.579823</ele>
        <time>2023-06-11T09:14:26.000Z</time>
      </trkpt>
      <trkpt lat="38.491073" lon="-78.114169">
        <ele>169.049249</ele>
        <time>2023-06-11T09:14:38.000Z</time>
      </trkpt>
      <trkpt lat="38.490943" lon="-78.114053">
        <ele>168.233218</ele>
        <time>2023-06-11T09:14:40.000Z</time>
      </trkpt>
      <trkpt lat="38.490858" lon="-78.113951">
        <ele>167.6499</ele>
        <time>2023-06-11T09:14:41.000Z</time>
      </trkpt>
      <trkpt lat="38.490711" lon="-78.113718">
        <ele>166.516506</ele>
        <time>2023-06-11T09:14:44.000Z</time>
      </trkpt>
      <trkpt lat="38.490311" lon="-78.112738">
        <ele>162.914445</ele>
        <time>2023-06-11T09:14:54.000Z</time>
      </trkpt>
      <trkpt lat="38.490121" lon="-78.112389">
        <ele>163.542974</ele>
        <time>2023-06-11T09:14:58.000Z</time>
      </trkpt>
      <trkpt lat="38.489703" lon="-78.111801">
        <ele>164.741068</ele>
        <time>2023-06-11T09:15:05.000Z</time>
      </trkpt>
      <trkpt lat="38.48938" lon="-78.111406">
        <ele>165.584599</ele>
        <time>2023-06-11T09:15:10.000Z</time>
      </trkpt>
      <trkpt lat="38.488673" lon="-78.110524">
        <ele>170.073478</ele>
        <time>2023-06-11T09:15:21.000Z</time>
      </trkpt>
      <trkpt lat="38.488125" lon="-78.109846">
        <ele>174.496677</ele>
        <time>2023-06-11T09:15:29.000Z</time>
      </trkpt>
      <trkpt lat="38.487815" lon="-78.109473">
        <ele>176.651927</ele>
        <time>2023-06-11T09:15:34.000Z</time>
      </trkpt>
      <trkpt lat="38.487109" lon="-78.108586">
        <ele>179.169393</ele>
        <time>2023-06-11T09:15:45.000Z</time>
      </trkpt>
      <trkpt lat="38.486712" lon="-78.108104">
        <ele>180.580253</ele>
        <time>2023-06-11T09:15:51.000Z</time>
      </trkpt>
      <trkpt lat="38.486426" lon="-78.107663">
        <ele>180.937975</ele>
        <time>2023-06-11T09:15:56.000Z</time>
      </trkpt>
      <trkpt lat="38.486319" lon="-78.107492">
        <ele>180.887855</ele>
        <time>2023-06-11T09:15:58.000Z</time>
      </trkpt>
      <trkpt lat="38.486197" lon="-78.107158">
        <ele>180.806321</ele>
        <time>2023-06-11T09:16:01.000Z</time>
      </trkpt>
      <trkpt lat="38.486169" lon="-78.106929">
        <ele>180.753177</ele>
        <time>2023-06-11T09:16:03.000Z</time>
      </trkpt>
      <trkpt lat="38.486207" lon="-78.106411">
        <ele>180.639554</ele>
        <time>2023-06-11T09:16:08.000Z</time>
      </trkpt>
      <trkpt lat="38.486258" lon="-78.105984">
        <ele>180.541292</ele>
        <time>2023-06-11T09:16:12.000Z</time>
      </trkpt>
      <trkpt lat="38.486362" lon="-78.105521">
        <ele>180.240539</ele>
        <time>2023-06-11T09:16:16.000Z</time>
      </trkpt>
      <trkpt lat="38.486399" lon="-78.105408">
        <ele>180.137192</ele>
        <time>2023-06-11T09:16:17.000Z</time>
      </trkpt>
      <trkpt lat="38.486577" lon="-78.104944">
        <ele>179.67146</ele>
        <time>2023-06-11T09:16:21.000Z</time>
      </trkpt>
      <trkpt lat="38.48681" lon="-78.104439">
        <ele>179.148255</ele>
        <time>2023-06-11T09:16:26.000Z</time>
      </trkpt>
      <trkpt lat="38.48693" lon="-78.104083">
        <ele>178.818149</ele>
        <time>2023-06-11T09:16:29.000Z</time>
      </trkpt>
      <trkpt lat="38.48701" lon="-78.103226">
        <ele>177.786005</ele>
        <time>2023-06-11T09:16:37.000Z</time>
      </trkpt>
      <trkpt lat="38.48705" lon="-78.102963">
        <ele>177.38613</ele>
        <time>2023-06-11T09:16:39.000Z</time>
      </trkpt>
      <trkpt lat="38.487238" lon="-78.102422">
        <ele>176.511568</ele>
        <time>2023-06-11T09:16:44.000Z</time>
      </trkpt>
      <trkpt lat="38.487609" lon="-78.101657">
        <ele>175.197446</ele>
        <time>2023-06-11T09:16:52.000Z</time>
      </trkpt>
      <trkpt lat="38.487863" lon="-78.10119">
        <ele>174.343029</ele>
        <time>2023-06-11T09:16:57.000Z</time>
      </trkpt>
      <trkpt lat="38.487906" lon="-78.101108">
        <ele>174.204008</ele>
        <time>2023-06-11T09:16:58.000Z</time>
      </trkpt>
      <trkpt lat="38.489082" lon="-78.099319">
        <ele>171.042108</ele>
        <time>2023-06-11T09:17:18.000Z</time>
      </trkpt>
      <trkpt lat="38.489283" lon="-78.098935">
        <ele>170.588096</ele>
        <time>2023-06-11T09:17:22.000Z</time>
      </trkpt>
      <trkpt lat="38.489393" lon="-78.098605">
        <ele>170.239494</ele>
        <time>2023-06-11T09:17:25.000Z</time>
      </trkpt>
      <trkpt lat="38.489455" lon="-78.098252">
        <ele>169.898649</ele>
        <time>2023-06-11T09:17:28.000Z</time>
      </trkpt>
      <trkpt lat="38.489454" lon="-78.098042">
        <ele>169.683723</ele>
        <time>2023-06-11T09:17:30.000Z</time>
      </trkpt>
      <trkpt lat="38.489438" lon="-78.097538">
        <ele>169.223575</ele>
        <time>2023-06-11T09:17:34.000Z</time>
      </trkpt>
      <trkpt lat="38.489498" lon="-78.096988">
        <ele>168.727141</ele>
        <time>2023-06-11T09:17:39.000Z</time>
      </trkpt>
      <trkpt lat="38.489551" lon="-78.096575">
        <ele>168.350381</ele>
        <time>2023-06-11T09:17:43.000Z</time>
      </trkpt>
      <trkpt lat="38.489536" lon="-78.095842">
        <ele>167.709455</ele>
        <time>2023-06-11T09:17:49.000Z</time>
      </trkpt>
      <trkpt lat="38.489382" lon="-78.094057">
        <ele>165.455207</ele>
        <time>2023-06-11T09:18:05.000Z</time>
      </trkpt>
      <trkpt lat="38.489124" lon="-78.091518">
        <ele>162.715877</ele>
        <time>2023-06-11T09:18:27.000Z</time>
      </trkpt>
      <trkpt lat="38.489102" lon="-78.091029">
        <ele>162.256331</ele>
        <time>2023-06-11T09:18:31.000Z</time>
      </trkpt>
      <trkpt lat="38.489122" lon="-78.090713">
        <ele>162.279488</ele>
        <time>2023-06-11T09:18:34.000Z</time>
      </trkpt>
      <trkpt lat="38.489198" lon="-78.090398">
        <ele>162.423159</ele>
        <time>2023-06-11T09:18:37.000Z</time>
      </trkpt>
      <trkpt lat="38.489289" lon="-78.090205">
        <ele>162.527394</ele>
        <time>2023-06-11T09:18:39.000Z</time>
      </trkpt>
      <trkpt lat="38.489483" lon="-78.089845">
        <ele>162.726073</ele>
        <time>2023-06-11T09:18:43.000Z</time>
      </trkpt>
      <trkpt lat="38.48958" lon="-78.0897">
        <ele>162.811046</ele>
        <time>2023-06-11T09:18:45.000Z</time>
      </trkpt>
      <trkpt lat="38.489876" lon="-78.089447">
        <ele>163.013128</ele>
        <time>2023-06-11T09:18:49.000Z</time>
      </trkpt>
      <trkpt lat="38.490493" lon="-78.088996">
        <ele>163.638332</ele>
        <time>2023-06-11T09:18:57.000Z</time>
      </trkpt>
      <trkpt lat="38.490777" lon="-78.088679">
        <ele>164.079586</ele>
        <time>2023-06-11T09:19:01.000Z</time>
      </trkpt>
      <trkpt lat="38.490902" lon="-78.088499">
        <ele>164.294673</ele>
        <time>2023-06-11T09:19:03.000Z</time>
      </trkpt>
      <trkpt lat="38.490992" lon="-78.08833">
        <ele>164.473139</ele>
        <time>2023-06-11T09:19:05.000Z</time>
      </trkpt>
      <trkpt lat="38.491176" lon="-78.087858">
        <ele>164.938271</ele>
        <time>2023-06-11T09:19:10.000Z</time>
      </trkpt>
      <trkpt lat="38.491456" lon="-78.087">
        <ele>165.547345</ele>
        <time>2023-06-11T09:19:18.000Z</time>
      </trkpt>
      <trkpt lat="38.491517" lon="-78.086708">
        <ele>165.695233</ele>
        <time>2023-06-11T09:19:21.000Z</time>
      </trkpt>
      <trkpt lat="38.491528" lon="-78.086676">
        <ele>165.710998</ele>
        <time>2023-06-11T09:19:21.000Z</time>
      </trkpt>
      <trkpt lat="38.49157" lon="-78.086356">
        <ele>165.869204</ele>
        <time>2023-06-11T09:19:24.000Z</time>
      </trkpt>
      <trkpt lat="38.491584" lon="-78.086044">
        <ele>166.017851</ele>
        <time>2023-06-11T09:19:27.000Z</time>
      </trkpt>
      <trkpt lat="38.491506" lon="-78.083671">
        <ele>167.025413</ele>
        <time>2023-06-11T09:19:48.000Z</time>
      </trkpt>
      <trkpt lat="38.491451" lon="-78.083397">
        <ele>167.137312</ele>
        <time>2023-06-11T09:19:50.000Z</time>
      </trkpt>
      <trkpt lat="38.491387" lon="-78.083207">
        <ele>167.223674</ele>
        <time>2023-06-11T09:19:52.000Z</time>
      </trkpt>
      <trkpt lat="38.491335" lon="-78.083063">
        <ele>167.283791</ele>
        <time>2023-06-11T09:19:53.000Z</time>
      </trkpt>
      <trkpt lat="38.49098" lon="-78.082285">
        <ele>166.80137</ele>
        <time>2023-06-11T09:20:01.000Z</time>
      </trkpt>
      <trkpt lat="38.490804" lon="-78.081759">
        <ele>166.46951</ele>
        <time>2023-06-11T09:20:06.000Z</time>
      </trkpt>
      <trkpt lat="38.490659" lon="-78.081257">
        <ele>166.150251</ele>
        <time>2023-06-11T09:20:11.000Z</time>
      </trkpt>
      <trkpt lat="38.490591" lon="-78.081067">
        <ele>166.039862</ele>
        <time>2023-06-11T09:20:13.000Z</time>
      </trkpt>
      <trkpt lat="38.490587" lon="-78.081051">
        <ele>166.024352</ele>
        <time>2023-06-11T09:20:13.000Z</time>
      </trkpt>
      <trkpt lat="38.49041" lon="-78.080456">
        <ele>165.767519</ele>
        <time>2023-06-11T09:20:19.000Z</time>
      </trkpt>
      <trkpt lat="38.490271" lon="-78.079978">
        <ele>165.583859</ele>
        <time>2023-06-11T09:20:23.000Z</time>
      </trkpt>
      <trkpt lat="38.490172" lon="-78.079518">
        <ele>165.413322</ele>
        <time>2023-06-11T09:20:27.000Z</time>
      </trkpt>
      <trkpt lat="38.490049" lon="-78.078688">
        <ele>165.034411</ele>
        <time>2023-06-11T09:20:34.000Z</time>
      </trkpt>
      <trkpt lat="38.49003" lon="-78.078521">
        <ele>164.826103</ele>
        <time>2023-06-11T09:20:35.000Z</time>
      </trkpt>
      <trkpt lat="38.489687" lon="-78.07848">
        <ele>164.233036</ele>
        <time>2023-06-11T09:20:39.000Z</time>
      </trkpt>
      <trkpt lat="38.489506" lon="-78.07841">
        <ele>163.919534</ele>
        <time>2023-06-11T09:20:41.000Z</time>
      </trkpt>
      <trkpt lat="38.489166" lon="-78.078102">
        <ele>163.228415</ele>
        <time>2023-06-11T09:20:46.000Z</time>
      </trkpt>
      <trkpt lat="38.488739" lon="-78.07766">
        <ele>162.29605</ele>
        <time>2023-06-11T09:20:52.000Z</time>
      </trkpt>
      <trkpt lat="38.488061" lon="-78.076968">
        <ele>160.180589</ele>
        <time>2023-06-11T09:21:02.000Z</time>
      </trkpt>
      <trkpt lat="38.4874" lon="-78.076274">
        <ele>157.985114</ele>
        <time>2023-06-11T09:21:12.000Z</time>
      </trkpt>
      <trkpt lat="38.48713" lon="-78.076093">
        <ele>157.513855</ele>
        <time>2023-06-11T09:21:15.000Z</time>
      </trkpt>
      <trkpt lat="38.486699" lon="-78.075885">
        <ele>157.588588</ele>
        <time>2023-06-11T09:21:20.000Z</time>
      </trkpt>
      <trkpt lat="38.486487" lon="-78.075699">
        <ele>157.631309</ele>
        <time>2023-06-11T09:21:23.000Z</time>
      </trkpt>
      <trkpt lat="38.486378" lon="-78.075541">
        <ele>157.659794</ele>
        <time>2023-06-11T09:21:25.000Z</time>
      </trkpt>
      <trkpt lat="38.486316" lon="-78.075404">
        <ele>157.679765</ele>
        <time>2023-06-11T09:21:26.000Z</time>
      </trkpt>
      <trkpt lat="38.486239" lon="-78.074986">
        <ele>157.736212</ele>
        <time>2023-06-11T09:21:30.000Z</time>
      </trkpt>
      <trkpt lat="38.486143" lon="-78.074087">
        <ele>157.904862</ele>
        <time>2023-06-11T09:21:38.000Z</time>
      </trkpt>
      <trkpt lat="38.486015" lon="-78.073546">
        <ele>158.04292</ele>
        <time>2023-06-11T09:21:43.000Z</time>
      </trkpt>
      <trkpt lat="38.48585" lon="-78.073171">
        <ele>158.150111</ele>
        <time>2023-06-11T09:21:47.000Z</time>
      </trkpt>
      <trkpt lat="38.485633" lon="-78.072784">
        <ele>158.267406</ele>
        <time>2023-06-11T09:21:51.000Z</time>
      </trkpt>
      <trkpt lat="38.485386" lon="-78.072498">
        <ele>158.234825</ele>
        <time>2023-06-11T09:21:55.000Z</time>
      </trkpt>
      <trkpt lat="38.484851" lon="-78.071809">
        <ele>156.456398</ele>
        <time>2023-06-11T09:22:03.000Z</time>
      </trkpt>
      <trkpt lat="38.484582" lon="-78.071467">
        <ele>155.572164</ele>
        <time>2023-06-11T09:22:07.000Z</time>
      </trkpt>
      <trkpt lat="38.484506" lon="-78.071377">
        <ele>155.32866</ele>
        <time>2023-06-11T09:22:08.000Z</time>
      </trkpt>
      <trkpt lat="38.484169" lon="-78.070884">
        <ele>154.102618</ele>
        <time>2023-06-11T09:22:14.000Z</time>
      </trkpt>
      <trkpt lat="38.483955" lon="-78.070501">
        <ele>153.007903</ele>
        <time>2023-06-11T09:22:18.000Z</time>
      </trkpt>
      <trkpt lat="38.483699" lon="-78.070089">
        <ele>151.756875</ele>
        <time>2023-06-11T09:22:23.000Z</time>
      </trkpt>
      <trkpt lat="38.48346" lon="-78.069657">
        <ele>150.500819</ele>
        <time>2023-06-11T09:22:28.000Z</time>
      </trkpt>
      <trkpt lat="38.483049" lon="-78.068758">
        <ele>148.134611</ele>
        <time>2023-06-11T09:22:37.000Z</time>
      </trkpt>
      <trkpt lat="38.483004" lon="-78.068658">
        <ele>147.884278</ele>
        <time>2023-06-11T09:22:38.000Z</time>
      </trkpt>
      <trkpt lat="38.482334" lon="-78.067332">
        <ele>144.589112</ele>
        <time>2023-06-11T09:22:52.000Z</time>
      </trkpt>
      <trkpt lat="38.482159" lon="-78.067019">
        <ele>143.840983</ele>
        <time>2023-06-11T09:22:55.000Z</time>
      </trkpt>
      <trkpt lat="38.481814" lon="-78.06662">
        <ele>143.187372</ele>
        <time>2023-06-11T09:23:00.000Z</time>
      </trkpt>
      <trkpt lat="38.480978" lon="-78.066022">
        <ele>141.853801</ele>
        <time>2023-06-11T09:23:11.000Z</time>
      </trkpt>
      <trkpt lat="38.480736" lon="-78.065825">
        <ele>141.445978</ele>
        <time>2023-06-11T09:23:14.000Z</time>
      </trkpt>
      <trkpt lat="38.480413" lon="-78.065527">
        <ele>142.506986</ele>
        <time>2023-06-11T09:23:18.000Z</time>
      </trkpt>
      <trkpt lat="38.480221" lon="-78.065269">
        <ele>143.344181</ele>
        <time>2023-06-11T09:23:21.000Z</time>
      </trkpt>
      <trkpt lat="38.480075" lon="-78.06497">
        <ele>144.227353</ele>
        <time>2023-06-11T09:23:24.000Z</time>
      </trkpt>
      <trkpt lat="38.479546" lon="-78.0639">
        <ele>147.333904</ele>
        <time>2023-06-11T09:23:35.000Z</time>
      </trkpt>
      <trkpt lat="38.478926" lon="-78.062854">
        <ele>151.365772</ele>
        <time>2023-06-11T09:23:46.000Z</time>
      </trkpt>
      <trkpt lat="38.478498" lon="-78.062173">
        <ele>154.035102</ele>
        <time>2023-06-11T09:23:54.000Z</time>
      </trkpt>
      <trkpt lat="38.477288" lon="-78.060519">
        <ele>161.18247</ele>
        <time>2023-06-11T09:24:14.000Z</time>
      </trkpt>
      <trkpt lat="38.477148" lon="-78.060385">
        <ele>161.721688</ele>
        <time>2023-06-11T09:24:16.000Z</time>
      </trkpt>
      <trkpt lat="38.476966" lon="-78.060347">
        <ele>162.263704</ele>
        <time>2023-06-11T09:24:18.000Z</time>
      </trkpt>
      <trkpt lat="38.476766" lon="-78.060351">
        <ele>162.918407</ele>
        <time>2023-06-11T09:24:20.000Z</time>
      </trkpt>
      <trkpt lat="38.476363" lon="-78.06043">
        <ele>164.114705</ele>
        <time>2023-06-11T09:24:25.000Z</time>
      </trkpt>
      <trkpt lat="38.476065" lon="-78.060562">
        <ele>165.106271</ele>
        <time>2023-06-11T09:24:29.000Z</time>
      </trkpt>
      <trkpt lat="38.475344" lon="-78.061009">
        <ele>166.986913</ele>
        <time>2023-06-11T09:24:38.000Z</time>
      </trkpt>
      <trkpt lat="38.47491" lon="-78.061295">
        <ele>167.465659</ele>
        <time>2023-06-11T09:24:43.000Z</time>
      </trkpt>
      <trkpt lat="38.474487" lon="-78.061574">
        <ele>167.930674</ele>
        <time>2023-06-11T09:24:48.000Z</time>
      </trkpt>
      <trkpt lat="38.473614" lon="-78.062041">
        <ele>168.617537</ele>
        <time>2023-06-11T09:24:59.000Z</time>
      </trkpt>
      <trkpt lat="38.473211" lon="-78.062317">
        <ele>168.789074</ele>
        <time>2023-06-11T09:25:04.000Z</time>
      </trkpt>
      <trkpt lat="38.472978" lon="-78.062476">
        <ele>168.886621</ele>
        <time>2023-06-11T09:25:07.000Z</time>
      </trkpt>
      <trkpt lat="38.472726" lon="-78.062585">
        <ele>168.989038</ele>
        <time>2023-06-11T09:25:10.000Z</time>
      </trkpt>
      <trkpt lat="38.472518" lon="-78.062673">
        <ele>169.070662</ele>
        <time>2023-06-11T09:25:12.000Z</time>
      </trkpt>
      <trkpt lat="38.472123" lon="-78.062785">
        <ele>169.179456</ele>
        <time>2023-06-11T09:25:16.000Z</time>
      </trkpt>
      <trkpt lat="38.471803" lon="-78.062793">
        <ele>169.229057</ele>
        <time>2023-06-11T09:25:20.000Z</time>
      </trkpt>
      <trkpt lat="38.471457" lon="-78.062721">
        <ele>169.284845</ele>
        <time>2023-06-11T09:25:24.000Z</time>
      </trkpt>
      <trkpt lat="38.470904" lon="-78.062452">
        <ele>169.377992</ele>
        <time>2023-06-11T09:25:31.000Z</time>
      </trkpt>
      <trkpt lat="38.470845" lon="-78.062404">
        <ele>169.388578</ele>
        <time>2023-06-11T09:25:32.000Z</time>
      </trkpt>
      <trkpt lat="38.470781" lon="-78.062623">
        <ele>169.417198</ele>
        <time>2023-06-11T09:25:34.000Z</time>
      </trkpt>
      <trkpt lat="38.470702" lon="-78.063649">
        <ele>169.369421</ele>
        <time>2023-06-11T09:25:43.000Z</time>
      </trkpt>
      <trkpt lat="38.470538" lon="-78.065727">
        <ele>168.71451</ele>
        <time>2023-06-11T09:26:01.000Z</time>
      </trkpt>
      <trkpt lat="38.470501" lon="-78.066084">
        <ele>168.415994</ele>
        <time>2023-06-11T09:26:04.000Z</time>
      </trkpt>
      <trkpt lat="38.470382" lon="-78.066451">
        <ele>168.10548</ele>
        <time>2023-06-11T09:26:07.000Z</time>
      </trkpt>
      <trkpt lat="38.470277" lon="-78.066606">
        <ele>167.948047</ele>
        <time>2023-06-11T09:26:09.000Z</time>
      </trkpt>
      <trkpt lat="38.470132" lon="-78.066742">
        <ele>167.751819</ele>
        <time>2023-06-11T09:26:11.000Z</time>
      </trkpt>
      <trkpt lat="38.469709" lon="-78.066944">
        <ele>167.360325</ele>
        <time>2023-06-11T09:26:16.000Z</time>
      </trkpt>
      <trkpt lat="38.469007" lon="-78.067074">
        <ele>166.972311</ele>
        <time>2023-06-11T09:26:24.000Z</time>
      </trkpt>
      <trkpt lat="38.468571" lon="-78.067171">
        <ele>166.718881</ele>
        <time>2023-06-11T09:26:29.000Z</time>
      </trkpt>
      <trkpt lat="38.468214" lon="-78.067298">
        <ele>166.517781</ele>
        <time>2023-06-11T09:26:33.000Z</time>
      </trkpt>
      <trkpt lat="38.467724" lon="-78.06751">
        <ele>166.672634</ele>
        <time>2023-06-11T09:26:39.000Z</time>
      </trkpt>
      <trkpt lat="38.467136" lon="-78.067892">
        <ele>167.059739</ele>
        <time>2023-06-11T09:26:46.000Z</time>
      </trkpt>
      <trkpt lat="38.467089" lon="-78.067923">
        <ele>167.09774</ele>
        <time>2023-06-11T09:26:47.000Z</time>
      </trkpt>
      <trkpt lat="38.466687" lon="-78.068232">
        <ele>167.372177</ele>
        <time>2023-06-11T09:26:52.000Z</time>
      </trkpt>
      <trkpt lat="38.466464" lon="-78.0684">
        <ele>167.52668</ele>
        <time>2023-06-11T09:26:55.000Z</time>
      </trkpt>
      <trkpt lat="38.465772" lon="-78.06891">
        <ele>167.910268</ele>
        <time>2023-06-11T09:27:04.000Z</time>
      </trkpt>
      <trkpt lat="38.465142" lon="-78.069354">
        <ele>168.266981</ele>
        <time>2023-06-11T09:27:12.000Z</time>
      </trkpt>
      <trkpt lat="38.46447" lon="-78.069848">
        <ele>168.200414</ele>
        <time>2023-06-11T09:27:21.000Z</time>
      </trkpt>
      <trkpt lat="38.464299" lon="-78.069957">
        <ele>168.131322</ele>
        <time>2023-06-11T09:27:23.000Z</time>
      </trkpt>
      <trkpt lat="38.463873" lon="-78.07027">
        <ele>167.958503</ele>
        <time>2023-06-11T09:27:28.000Z</time>
      </trkpt>
      <trkpt lat="38.463237" lon="-78.070755">
        <ele>167.753267</ele>
        <time>2023-06-11T09:27:36.000Z</time>
      </trkpt>
      <trkpt lat="38.463215" lon="-78.07077">
        <ele>167.754628</ele>
        <time>2023-06-11T09:27:36.000Z</time>
      </trkpt>
      <trkpt lat="38.462811" lon="-78.071046">
        <ele>167.78636</ele>
        <time>2023-06-11T09:27:41.000Z</time>
      </trkpt>
      <trkpt lat="38.462447" lon="-78.071208">
        <ele>167.813738</ele>
        <time>2023-06-11T09:27:45.000Z</time>
      </trkpt>
      <trkpt lat="38.462288" lon="-78.071226">
        <ele>167.824865</ele>
        <time>2023-06-11T09:27:47.000Z</time>
      </trkpt>
      <trkpt lat="38.462148" lon="-78.071205">
        <ele>167.834362</ele>
        <time>2023-06-11T09:27:49.000Z</time>
      </trkpt>
      <trkpt lat="38.461769" lon="-78.07109">
        <ele>167.861807</ele>
        <time>2023-06-11T09:27:53.000Z</time>
      </trkpt>
      <trkpt lat="38.461511" lon="-78.071015">
        <ele>167.811686</ele>
        <time>2023-06-11T09:27:56.000Z</time>
      </trkpt>
      <trkpt lat="38.461264" lon="-78.070987">
        <ele>167.724873</ele>
        <time>2023-06-11T09:27:59.000Z</time>
      </trkpt>
      <trkpt lat="38.461168" lon="-78.070987">
        <ele>167.693409</ele>
        <time>2023-06-11T09:28:00.000Z</time>
      </trkpt>
      <trkpt lat="38.461008" lon="-78.071009">
        <ele>167.637972</ele>
        <time>2023-06-11T09:28:02.000Z</time>
      </trkpt>
      <trkpt lat="38.460797" lon="-78.071105">
        <ele>167.559247</ele>
        <time>2023-06-11T09:28:04.000Z</time>
      </trkpt>
      <trkpt lat="38.45954" lon="-78.071817">
        <ele>166.334693</ele>
        <time>2023-06-11T09:28:19.000Z</time>
      </trkpt>
      <trkpt lat="38.459802" lon="-78.072318">
        <ele>165.439034</ele>
        <time>2023-06-11T09:28:24.000Z</time>
      </trkpt>
      <trkpt lat="38.46007" lon="-78.072683">
        <ele>164.682451</ele>
        <time>2023-06-11T09:28:28.000Z</time>
      </trkpt>
      <trkpt lat="38.460523" lon="-78.073161">
        <ele>163.601771</ele>
        <time>2023-06-11T09:28:35.000Z</time>
      </trkpt>
      <trkpt lat="38.460695" lon="-78.073382">
        <ele>163.154387</ele>
        <time>2023-06-11T09:28:38.000Z</time>
      </trkpt>
      <trkpt lat="38.460877" lon="-78.073668">
        <ele>162.603138</ele>
        <time>2023-06-11T09:28:41.000Z</time>
      </trkpt>
      <trkpt lat="38.461168" lon="-78.074182">
        <ele>161.691197</ele>
        <time>2023-06-11T09:28:47.000Z</time>
      </trkpt>
      <trkpt lat="38.461345" lon="-78.074385">
        <ele>161.257123</ele>
        <time>2023-06-11T09:28:50.000Z</time>
      </trkpt>
      <trkpt lat="38.461481" lon="-78.074496">
        <ele>160.96626</ele>
        <time>2023-06-11T09:28:52.000Z</time>
      </trkpt>
      <trkpt lat="38.462154" lon="-78.074882">
        <ele>161.321609</ele>
        <time>2023-06-11T09:29:00.000Z</time>
      </trkpt>
      <trkpt lat="38.462411" lon="-78.075111">
        <ele>161.859188</ele>
        <time>2023-06-11T09:29:03.000Z</time>
      </trkpt>
      <trkpt lat="38.462476" lon="-78.075176">
        <ele>161.982011</ele>
        <time>2023-06-11T09:29:04.000Z</time>
      </trkpt>
      <trkpt lat="38.462604" lon="-78.075424">
        <ele>162.362218</ele>
        <time>2023-06-11T09:29:07.000Z</time>
      </trkpt>
      <trkpt lat="38.462863" lon="-78.076395">
        <ele>163.416354</ele>
        <time>2023-06-11T09:29:16.000Z</time>
      </trkpt>
      <trkpt lat="38.463006" lon="-78.0769">
        <ele>163.11141</ele>
        <time>2023-06-11T09:29:21.000Z</time>
      </trkpt>
      <trkpt lat="38.46318" lon="-78.077502">
        <ele>162.743413</ele>
        <time>2023-06-11T09:29:27.000Z</time>
      </trkpt>
      <trkpt lat="38.463252" lon="-78.077736">
        <ele>162.602881</ele>
        <time>2023-06-11T09:29:29.000Z</time>
      </trkpt>
      <trkpt lat="38.463722" lon="-78.079356">
        <ele>158.964516</ele>
        <time>2023-06-11T09:29:44.000Z</time>
      </trkpt>
      <trkpt lat="38.463854" lon="-78.079727">
        <ele>157.62095</ele>
        <time>2023-06-11T09:29:48.000Z</time>
      </trkpt>
      <trkpt lat="38.463997" lon="-78.079925">
        <ele>156.757099</ele>
        <time>2023-06-11T09:29:50.000Z</time>
      </trkpt>
      <trkpt lat="38.464059" lon="-78.080005">
        <ele>156.34186</ele>
        <time>2023-06-11T09:29:51.000Z</time>
      </trkpt>
      <trkpt lat="38.464229" lon="-78.080116">
        <ele>155.589403</ele>
        <time>2023-06-11T09:29:53.000Z</time>
      </trkpt>
      <trkpt lat="38.46454" lon="-78.080239">
        <ele>154.77671</ele>
        <time>2023-06-11T09:29:57.000Z</time>
      </trkpt>
      <trkpt lat="38.464889" lon="-78.080383">
        <ele>154.767679</ele>
        <time>2023-06-11T09:30:01.000Z</time>
      </trkpt>
      <trkpt lat="38.465682" lon="-78.080808">
        <ele>154.747104</ele>
        <time>2023-06-11T09:30:11.000Z</time>
      </trkpt>
      <trkpt lat="38.465989" lon="-78.080965">
        <ele>154.738941</ele>
        <time>2023-06-11T09:30:15.000Z</time>
      </trkpt>
      <trkpt lat="38.466361" lon="-78.081138">
        <ele>155.72454</ele>
        <time>2023-06-11T09:30:19.000Z</time>
      </trkpt>
      <trkpt lat="38.466849" lon="-78.081379">
        <ele>157.556659</ele>
        <time>2023-06-11T09:30:25.000Z</time>
      </trkpt>
      <trkpt lat="38.46742" lon="-78.081665">
        <ele>159.681265</ele>
        <time>2023-06-11T09:30:32.000Z</time>
      </trkpt>
      <trkpt lat="38.468593" lon="-78.082649">
        <ele>162.816521</ele>
        <time>2023-06-11T09:30:48.000Z</time>
      </trkpt>
      <trkpt lat="38.468738" lon="-78.082685">
        <ele>163.063315</ele>
        <time>2023-06-11T09:30:50.000Z</time>
      </trkpt>
      <trkpt lat="38.468923" lon="-78.082657">
        <ele>163.387062</ele>
        <time>2023-06-11T09:30:52.000Z</time>
      </trkpt>
      <trkpt lat="38.469157" lon="-78.082573">
        <ele>163.832175</ele>
        <time>2023-06-11T09:30:55.000Z</time>
      </trkpt>
      <trkpt lat="38.469665" lon="-78.082363">
        <ele>164.075885</ele>
        <time>2023-06-11T09:31:01.000Z</time>
      </trkpt>
      <trkpt lat="38.470884" lon="-78.08184">
        <ele>163.697223</ele>
        <time>2023-06-11T09:31:15.000Z</time>
      </trkpt>
      <trkpt lat="38.47124" lon="-78.081735">
        <ele>163.302854</ele>
        <time>2023-06-11T09:31:19.000Z</time>
      </trkpt>
      <trkpt lat="38.471571" lon="-78.08171">
        <ele>162.735268</ele>
        <time>2023-06-11T09:31:23.000Z</time>
      </trkpt>
      <trkpt lat="38.472056" lon="-78.081788">
        <ele>161.885315</ele>
        <time>2023-06-11T09:31:28.000Z</time>
      </trkpt>
      <trkpt lat="38.472361" lon="-78.081779">
        <ele>161.369544</ele>
        <time>2023-06-11T09:31:31.000Z</time>
      </trkpt>
      <trkpt lat="38.47395" lon="-78.08106">
        <ele>157.729399</ele>
        <time>2023-06-11T09:31:50.000Z</time>
      </trkpt>
      <trkpt lat="38.474289" lon="-78.080959">
        <ele>156.920864</ele>
        <time>2023-06-11T09:31:54.000Z</time>
      </trkpt>
      <trkpt lat="38.474526" lon="-78.080974">
        <ele>156.33376</ele>
        <time>2023-06-11T09:31:57.000Z</time>
      </trkpt>
      <trkpt lat="38.474822" lon="-78.081076">
        <ele>156.148684</ele>
        <time>2023-06-11T09:32:00.000Z</time>
      </trkpt>
      <trkpt lat="38.475014" lon="-78.081275">
        <ele>156.017679</ele>
        <time>2023-06-11T09:32:03.000Z</time>
      </trkpt>
      <trkpt lat="38.475161" lon="-78.081784">
        <ele>155.785448</ele>
        <time>2023-06-11T09:32:08.000Z</time>
      </trkpt>
      <trkpt lat="38.475377" lon="-78.082303">
        <ele>155.533295</ele>
        <time>2023-06-11T09:32:13.000Z</time>
      </trkpt>
      <trkpt lat="38.475638" lon="-78.082902">
        <ele>155.334579</ele>
        <time>2023-06-11T09:32:19.000Z</time>
      </trkpt>
      <trkpt lat="38.475812" lon="-78.083426">
        <ele>155.347832</ele>
        <time>2023-06-11T09:32:24.000Z</time>
      </trkpt>
      <trkpt lat="38.475865" lon="-78.083826">
        <ele>155.356839</ele>
        <time>2023-06-11T09:32:28.000Z</time>
      </trkpt>
      <trkpt lat="38.475852" lon="-78.084621">
        <ele>155.375054</ele>
        <time>2023-06-11T09:32:35.000Z</time>
      </trkpt>
      <trkpt lat="38.475847" lon="-78.085004">
        <ele>155.168119</ele>
        <time>2023-06-11T09:32:38.000Z</time>
      </trkpt>
      <trkpt lat="38.475838" lon="-78.085372">
        <ele>153.920095</ele>
        <time>2023-06-11T09:32:41.000Z</time>
      </trkpt>
      <trkpt lat="38.475898" lon="-78.087177">
        <ele>147.949296</ele>
        <time>2023-06-11T09:32:57.000Z</time>
      </trkpt>
      <trkpt lat="38.475921" lon="-78.087832">
        <ele>146.101537</ele>
        <time>2023-06-11T09:33:03.000Z</time>
      </trkpt>
      <trkpt lat="38.476037" lon="-78.089616">
        <ele>141.462711</ele>
        <time>2023-06-11T09:33:19.000Z</time>
      </trkpt>
      <trkpt lat="38.476045" lon="-78.090471">
        <ele>142.909884</ele>
        <time>2023-06-11T09:33:26.000Z</time>
      </trkpt>
      <trkpt lat="38.476066" lon="-78.091157">
        <ele>144.049947</ele>
        <time>2023-06-11T09:33:32.000Z</time>
      </trkpt>
      <trkpt lat="38.476077" lon="-78.091466">
        <ele>144.59712</ele>
        <time>2023-06-11T09:33:35.000Z</time>
      </trkpt>
      <trkpt lat="38.476056" lon="-78.092114">
        <ele>145.717487</ele>
        <time>2023-06-11T09:33:41.000Z</time>
      </trkpt>
      <trkpt lat="38.475969" lon="-78.092824">
        <ele>147.073335</ele>
        <time>2023-06-11T09:33:47.000Z</time>
      </trkpt>
      <trkpt lat="38.47593" lon="-78.093473">
        <ele>148.319339</ele>
        <time>2023-06-11T09:33:53.000Z</time>
      </trkpt>
      <trkpt lat="38.47593" lon="-78.093849">
        <ele>149.003816</ele>
        <time>2023-06-11T09:33:56.000Z</time>
      </trkpt>
      <trkpt lat="38.476059" lon="-78.094705">
        <ele>149.005932</ele>
        <time>2023-06-11T09:34:04.000Z</time>
      </trkpt>
      <trkpt lat="38.47596" lon="-78.095974">
        <ele>147.989712</ele>
        <time>2023-06-11T09:34:15.000Z</time>
      </trkpt>
      <trkpt lat="38.47594" lon="-78.096309">
        <ele>147.720221</ele>
        <time>2023-06-11T09:34:18.000Z</time>
      </trkpt>
      <trkpt lat="38.475974" lon="-78.0968">
        <ele>148.043063</ele>
        <time>2023-06-11T09:34:22.000Z</time>
      </trkpt>
      <trkpt lat="38.47603" lon="-78.097289">
        <ele>148.493734</ele>
        <time>2023-06-11T09:34:26.000Z</time>
      </trkpt>
      <trkpt lat="38.47609" lon="-78.097671">
        <ele>148.850205</ele>
        <time>2023-06-11T09:34:29.000Z</time>
      </trkpt>
      <trkpt lat="38.475568" lon="-78.097836">
        <ele>149.471395</ele>
        <time>2023-06-11T09:34:35.000Z</time>
      </trkpt>
      <trkpt lat="38.473719" lon="-78.098414">
        <ele>156.621106</ele>
        <time>2023-06-11T09:34:56.000Z</time>
      </trkpt>
      <trkpt lat="38.472092" lon="-78.098917">
        <ele>161.007061</ele>
        <time>2023-06-11T09:35:15.000Z</time>
      </trkpt>
      <trkpt lat="38.47115" lon="-78.099293">
        <ele>162.124851</ele>
        <time>2023-06-11T09:35:26.000Z</time>
      </trkpt>
      <trkpt lat="38.47065" lon="-78.099569">
        <ele>162.497917</ele>
        <time>2023-06-11T09:35:32.000Z</time>
      </trkpt>
      <trkpt lat="38.470387" lon="-78.099786">
        <ele>162.705986</ele>
        <time>2023-06-11T09:35:35.000Z</time>
      </trkpt>
      <trkpt lat="38.470336" lon="-78.099882">
        <ele>162.77195</ele>
        <time>2023-06-11T09:35:36.000Z</time>
      </trkpt>
      <trkpt lat="38.470184" lon="-78.100142">
        <ele>163.095984</ele>
        <time>2023-06-11T09:35:39.000Z</time>
      </trkpt>
      <trkpt lat="38.47007" lon="-78.100489">
        <ele>163.577249</ele>
        <time>2023-06-11T09:35:42.000Z</time>
      </trkpt>
      <trkpt lat="38.470033" lon="-78.100826">
        <ele>164.053916</ele>
        <time>2023-06-11T09:35:45.000Z</time>
      </trkpt>
      <trkpt lat="38.469968" lon="-78.101547">
        <ele>165.007587</ele>
        <time>2023-06-11T09:35:51.000Z</time>
      </trkpt>
      <trkpt lat="38.470002" lon="-78.101972">
        <ele>165.599154</ele>
        <time>2023-06-11T09:35:55.000Z</time>
      </trkpt>
      <trkpt lat="38.470072" lon="-78.102395">
        <ele>166.190138</ele>
        <time>2023-06-11T09:35:59.000Z</time>
      </trkpt>
      <trkpt lat="38.470233" lon="-78.102907">
        <ele>167.032014</ele>
        <time>2023-06-11T09:36:04.000Z</time>
      </trkpt>
      <trkpt lat="38.470434" lon="-78.103698">
        <ele>168.2888</ele>
        <time>2023-06-11T09:36:11.000Z</time>
      </trkpt>
      <trkpt lat="38.47049" lon="-78.103881">
        <ele>168.583277</ele>
        <time>2023-06-11T09:36:13.000Z</time>
      </trkpt>
      <trkpt lat="38.470675" lon="-78.104701">
        <ele>169.620399</ele>
        <time>2023-06-11T09:36:20.000Z</time>
      </trkpt>
      <trkpt lat="38.470691" lon="-78.104983">
        <ele>169.803578</ele>
        <time>2023-06-11T09:36:22.000Z</time>
      </trkpt>
      <trkpt lat="38.470656" lon="-78.105206">
        <ele>169.961134</ele>
        <time>2023-06-11T09:36:24.000Z</time>
      </trkpt>
      <trkpt lat="38.470562" lon="-78.105478">
        <ele>170.152895</ele>
        <time>2023-06-11T09:36:27.000Z</time>
      </trkpt>
      <trkpt lat="38.470402" lon="-78.105719">
        <ele>170.364339</ele>
        <time>2023-06-11T09:36:30.000Z</time>
      </trkpt>
      <trkpt lat="38.469936" lon="-78.106247">
        <ele>170.880228</ele>
        <time>2023-06-11T09:36:37.000Z</time>
      </trkpt>
      <trkpt lat="38.469896" lon="-78.10629">
        <ele>170.927929</ele>
        <time>2023-06-11T09:36:38.000Z</time>
      </trkpt>
      <trkpt lat="38.46974" lon="-78.106536">
        <ele>171.085222</ele>
        <time>2023-06-11T09:36:41.000Z</time>
      </trkpt>
      <trkpt lat="38.469527" lon="-78.106946">
        <ele>171.3348</ele>
        <time>2023-06-11T09:36:45.000Z</time>
      </trkpt>
      <trkpt lat="38.469477" lon="-78.107026">
        <ele>171.389164</ele>
        <time>2023-06-11T09:36:46.000Z</time>
      </trkpt>
      <trkpt lat="38.469364" lon="-78.107271">
        <ele>171.528843</ele>
        <time>2023-06-11T09:36:48.000Z</time>
      </trkpt>
      <trkpt lat="38.469094" lon="-78.107837">
        <ele>171.863593</ele>
        <time>2023-06-11T09:36:54.000Z</time>
      </trkpt>
      <trkpt lat="38.468965" lon="-78.108134">
        <ele>172.041226</ele>
        <time>2023-06-11T09:36:57.000Z</time>
      </trkpt>
      <trkpt lat="38.468875" lon="-78.108452">
        <ele>172.368219</ele>
        <time>2023-06-11T09:37:00.000Z</time>
      </trkpt>
      <trkpt lat="38.468534" lon="-78.109644">
        <ele>173.83029</ele>
        <time>2023-06-11T09:37:11.000Z</time>
      </trkpt>
      <trkpt lat="38.468433" lon="-78.109932">
        <ele>174.193881</ele>
        <time>2023-06-11T09:37:14.000Z</time>
      </trkpt>
      <trkpt lat="38.468077" lon="-78.110732">
        <ele>174.797216</ele>
        <time>2023-06-11T09:37:22.000Z</time>
      </trkpt>
      <trkpt lat="38.467925" lon="-78.111067">
        <ele>174.847888</ele>
        <time>2023-06-11T09:37:25.000Z</time>
      </trkpt>
      <trkpt lat="38.467831" lon="-78.111278">
        <ele>174.87872</ele>
        <time>2023-06-11T09:37:27.000Z</time>
      </trkpt>
      <trkpt lat="38.467469" lon="-78.111919">
        <ele>174.984055</ele>
        <time>2023-06-11T09:37:34.000Z</time>
      </trkpt>
      <trkpt lat="38.467169" lon="-78.11234">
        <ele>174.980487</ele>
        <time>2023-06-11T09:37:39.000Z</time>
      </trkpt>
      <trkpt lat="38.466906" lon="-78.112641">
        <ele>174.766867</ele>
        <time>2023-06-11T09:37:43.000Z</time>
      </trkpt>
      <trkpt lat="38.466482" lon="-78.113028">
        <ele>174.452363</ele>
        <time>2023-06-11T09:37:49.000Z</time>
      </trkpt>
      <trkpt lat="38.466106" lon="-78.113325">
        <ele>174.189347</ele>
        <time>2023-06-11T09:37:54.000Z</time>
      </trkpt>
      <trkpt lat="38.465687" lon="-78.113537">
        <ele>174.015392</ele>
        <time>2023-06-11T09:37:59.000Z</time>
      </trkpt>
      <trkpt lat="38.464177" lon="-78.114101">
        <ele>175.296128</ele>
        <time>2023-06-11T09:38:16.000Z</time>
      </trkpt>
      <trkpt lat="38.462206" lon="-78.11471">
        <ele>178.491594</ele>
        <time>2023-06-11T09:38:39.000Z</time>
      </trkpt>
      <trkpt lat="38.462302" lon="-78.114926">
        <ele>178.640144</ele>
        <time>2023-06-11T09:38:41.000Z</time>
      </trkpt>
      <trkpt lat="38.462411" lon="-78.115035">
        <ele>178.756621</ele>
        <time>2023-06-11T09:38:43.000Z</time>
      </trkpt>
      <trkpt lat="38.464252" lon="-78.116132">
        <ele>179.980718</ele>
        <time>2023-06-11T09:39:06.000Z</time>
      </trkpt>
      <trkpt lat="38.465389" lon="-78.116929">
        <ele>180.123773</ele>
        <time>2023-06-11T09:39:20.000Z</time>
      </trkpt>
      <trkpt lat="38.466419" lon="-78.11758">
        <ele>179.746967</ele>
        <time>2023-06-11T09:39:33.000Z</time>
      </trkpt>
      <trkpt lat="38.466891" lon="-78.117887">
        <ele>179.544411</ele>
        <time>2023-06-11T09:39:39.000Z</time>
      </trkpt>
      <trkpt lat="38.467838" lon="-78.118215">
        <ele>178.329653</ele>
        <time>2023-06-11T09:39:50.000Z</time>
      </trkpt>
      <trkpt lat="38.468057" lon="-78.118316">
        <ele>178.025182</ele>
        <time>2023-06-11T09:39:53.000Z</time>
      </trkpt>
      <trkpt lat="38.468297" lon="-78.118499">
        <ele>177.688321</ele>
        <time>2023-06-11T09:39:56.000Z</time>
      </trkpt>
      <trkpt lat="38.468395" lon="-78.118611">
        <ele>177.51872</ele>
        <time>2023-06-11T09:39:57.000Z</time>
      </trkpt>
      <trkpt lat="38.468707" lon="-78.119117">
        <ele>177.242371</ele>
        <time>2023-06-11T09:40:03.000Z</time>
      </trkpt>
      <trkpt lat="38.469286" lon="-78.120242">
        <ele>176.956172</ele>
        <time>2023-06-11T09:40:15.000Z</time>
      </trkpt>
      <trkpt lat="38.469398" lon="-78.120412">
        <ele>176.909302</ele>
        <time>2023-06-11T09:40:17.000Z</time>
      </trkpt>
      <trkpt lat="38.469499" lon="-78.120538">
        <ele>176.870203</ele>
        <time>2023-06-11T09:40:19.000Z</time>
      </trkpt>
      <trkpt lat="38.46981" lon="-78.12083">
        <ele>177.506717</ele>
        <time>2023-06-11T09:40:23.000Z</time>
      </trkpt>
      <trkpt lat="38.470103" lon="-78.121127">
        <ele>178.259122</ele>
        <time>2023-06-11T09:40:27.000Z</time>
      </trkpt>
      <trkpt lat="38.470286" lon="-78.121407">
        <ele>178.866162</ele>
        <time>2023-06-11T09:40:30.000Z</time>
      </trkpt>
      <trkpt lat="38.470521" lon="-78.121938">
        <ele>179.846367</ele>
        <time>2023-06-11T09:40:35.000Z</time>
      </trkpt>
      <trkpt lat="38.470696" lon="-78.122189">
        <ele>180.356325</ele>
        <time>2023-06-11T09:40:38.000Z</time>
      </trkpt>
      <trkpt lat="38.470783" lon="-78.122288">
        <ele>180.639976</ele>
        <time>2023-06-11T09:40:39.000Z</time>
      </trkpt>
      <trkpt lat="38.471682" lon="-78.122963">
        <ele>183.253852</ele>
        <time>2023-06-11T09:40:51.000Z</time>
      </trkpt>
      <trkpt lat="38.47212" lon="-78.123152">
        <ele>184.392187</ele>
        <time>2023-06-11T09:40:56.000Z</time>
      </trkpt>
      <trkpt lat="38.472469" lon="-78.123321">
        <ele>185.340036</ele>
        <time>2023-06-11T09:41:00.000Z</time>
      </trkpt>
      <trkpt lat="38.472709" lon="-78.123438">
        <ele>186.049902</ele>
        <time>2023-06-11T09:41:03.000Z</time>
      </trkpt>
      <trkpt lat="38.474037" lon="-78.124025">
        <ele>189.701815</ele>
        <time>2023-06-11T09:41:19.000Z</time>
      </trkpt>
      <trkpt lat="38.474819" lon="-78.124344">
        <ele>190.587449</ele>
        <time>2023-06-11T09:41:28.000Z</time>
      </trkpt>
      <trkpt lat="38.47538" lon="-78.124611">
        <ele>191.225466</ele>
        <time>2023-06-11T09:41:35.000Z</time>
      </trkpt>
      <trkpt lat="38.475771" lon="-78.12486">
        <ele>191.589165</ele>
        <time>2023-06-11T09:41:40.000Z</time>
      </trkpt>
      <trkpt lat="38.47655" lon="-78.125446">
        <ele>190.570086</ele>
        <time>2023-06-11T09:41:50.000Z</time>
      </trkpt>
      <trkpt lat="38.477662" lon="-78.12629">
        <ele>189.787993</ele>
        <time>2023-06-11T09:42:04.000Z</time>
      </trkpt>
      <trkpt lat="38.478029" lon="-78.126638">
        <ele>189.983092</ele>
        <time>2023-06-11T09:42:09.000Z</time>
      </trkpt>
      <trkpt lat="38.479349" lon="-78.12787">
        <ele>191.570609</ele>
        <time>2023-06-11T09:42:27.000Z</time>
      </trkpt>
      <trkpt lat="38.479803" lon="-78.128362">
        <ele>192.548479</ele>
        <time>2023-06-11T09:42:34.000Z</time>
      </trkpt>
      <trkpt lat="38.479797" lon="-78.128364">
        <ele>192.550568</ele>
        <time>2023-06-11T09:42:34.000Z</time>
      </trkpt>
      <trkpt lat="38.479962" lon="-78.1286">
        <ele>192.962092</ele>
        <time>2023-06-11T09:42:37.000Z</time>
      </trkpt>
      <trkpt lat="38.480165" lon="-78.12892">
        <ele>193.265433</ele>
        <time>2023-06-11T09:42:41.000Z</time>
      </trkpt>
      <trkpt lat="38.480315" lon="-78.129285">
        <ele>192.993243</ele>
        <time>2023-06-11T09:42:45.000Z</time>
      </trkpt>
      <trkpt lat="38.480637" lon="-78.130149">
        <ele>192.365428</ele>
        <time>2023-06-11T09:42:53.000Z</time>
      </trkpt>
      <trkpt lat="38.480748" lon="-78.130389">
        <ele>192.184957</ele>
        <time>2023-06-11T09:42:55.000Z</time>
      </trkpt>
      <trkpt lat="38.480865" lon="-78.130501">
        <ele>192.073213</ele>
        <time>2023-06-11T09:42:57.000Z</time>
      </trkpt>
      <trkpt lat="38.480977" lon="-78.130485">
        <ele>191.981379</ele>
        <time>2023-06-11T09:42:58.000Z</time>
      </trkpt>
      <trkpt lat="38.481388" lon="-78.130255">
        <ele>191.498183</ele>
        <time>2023-06-11T09:43:03.000Z</time>
      </trkpt>
      <trkpt lat="38.481375" lon="-78.130252">
        <ele>191.496628</ele>
        <time>2023-06-11T09:43:03.000Z</time>
      </trkpt>
      <trkpt lat="38.484869" lon="-78.128111">
        <ele>186.927432</ele>
        <time>2023-06-11T09:43:46.000Z</time>
      </trkpt>
      <trkpt lat="38.485051" lon="-78.128007">
        <ele>186.628857</ele>
        <time>2023-06-11T09:43:48.000Z</time>
      </trkpt>
      <trkpt lat="38.485158" lon="-78.127988">
        <ele>186.453515</ele>
        <time>2023-06-11T09:43:49.000Z</time>
      </trkpt>
      <trkpt lat="38.485238" lon="-78.128024">
        <ele>186.323456</ele>
        <time>2023-06-11T09:43:50.000Z</time>
      </trkpt>
      <trkpt lat="38.485495" lon="-78.127601">
        <ele>185.688689</ele>
        <time>2023-06-11T09:43:55.000Z</time>
      </trkpt>
      <trkpt lat="38.486532" lon="-78.125595">
        <ele>182.430589</ele>
        <time>2023-06-11T09:44:16.000Z</time>
      </trkpt>
      <trkpt lat="38.487341" lon="-78.124068">
        <ele>182.021017</ele>
        <time>2023-06-11T09:44:32.000Z</time>
      </trkpt>
      <trkpt lat="38.487864" lon="-78.123125">
        <ele>182.614773</ele>
        <time>2023-06-11T09:44:42.000Z</time>
      </trkpt>
      <trkpt lat="38.48823" lon="-78.122552">
        <ele>184.017744</ele>
        <time>2023-06-11T09:44:48.000Z</time>
      </trkpt>
      <trkpt lat="38.488505" lon="-78.122135">
        <ele>185.01519</ele>
        <time>2023-06-11T09:44:53.000Z</time>
      </trkpt>
      <trkpt lat="38.488753" lon="-78.121714">
        <ele>186.012422</ele>
        <time>2023-06-11T09:44:58.000Z</time>
      </trkpt>
      <trkpt lat="38.4889" lon="-78.121492">
        <ele>186.561236</ele>
        <time>2023-06-11T09:45:01.000Z</time>
      </trkpt>
      <trkpt lat="38.48969" lon="-78.120526">
        <ele>189.596666</ele>
        <time>2023-06-11T09:45:13.000Z</time>
      </trkpt>
      <trkpt lat="38.491747" lon="-78.118387">
        <ele>194.395366</ele>
        <time>2023-06-11T09:45:42.000Z</time>
      </trkpt>
      <trkpt lat="38.492588" lon="-78.117414">
        <ele>192.296419</ele>
        <time>2023-06-11T09:45:55.000Z</time>
      </trkpt>
      <trkpt lat="38.49274" lon="-78.117198">
        <ele>191.863056</ele>
        <time>2023-06-11T09:45:58.000Z</time>
      </trkpt>
      <trkpt lat="38.492983" lon="-78.116706">
        <ele>190.21885</ele>
        <time>2023-06-11T09:46:03.000Z</time>
      </trkpt>
      <trkpt lat="38.493375" lon="-78.115867">
        <ele>185.827214</ele>
        <time>2023-06-11T09:46:12.000Z</time>
      </trkpt>
      <trkpt lat="38.493379" lon="-78.115705">
        <ele>185.121399</ele>
        <time>2023-06-11T09:46:13.000Z</time>
      </trkpt>
      <trkpt lat="38.493286" lon="-78.115576">
        <ele>184.352421</ele>
        <time>2023-06-11T09:46:15.000Z</time>
      </trkpt>
      <trkpt lat="38.492916" lon="-78.115271">
        <ele>181.824868</ele>
        <time>2023-06-11T09:46:20.000Z</time>
      </trkpt>
      <trkpt lat="38.492099" lon="-78.114713">
        <ele>175.67289</ele>
        <time>2023-06-11T09:46:30.000Z</time>
      </trkpt>
      <trkpt lat="38.491081" lon="-78.114173">
        <ele>168.546913</ele>
        <time>2023-06-11T09:46:42.000Z</time>
      </trkpt>
      <trkpt lat="38.490937" lon="-78.114063">
        <ele>167.930923</ele>
        <time>2023-06-11T09:46:44.000Z</time>
      </trkpt>
      <trkpt lat="38.490846" lon="-78.113958">
        <ele>167.490609</ele>
        <time>2023-06-11T09:46:45.000Z</time>
      </trkpt>
      <trkpt lat="38.490717" lon="-78.11373">
        <ele>166.635065</ele>
        <time>2023-06-11T09:46:47.000Z</time>
      </trkpt>
      <trkpt lat="38.490304" lon="-78.112741">
        <ele>163.39555</ele>
        <time>2023-06-11T09:46:57.000Z</time>
      </trkpt>
      <trkpt lat="38.49013" lon="-78.112392">
        <ele>162.354445</ele>
        <time>2023-06-11T09:47:01.000Z</time>
      </trkpt>
      <trkpt lat="38.489694" lon="-78.111788">
        <ele>164.529578</ele>
        <time>2023-06-11T09:47:08.000Z</time>
      </trkpt>
      <trkpt lat="38.489381" lon="-78.111405">
        <ele>166.061023</ele>
        <time>2023-06-11T09:47:13.000Z</time>
      </trkpt>
      <trkpt lat="38.488683" lon="-78.110531">
        <ele>169.9579</ele>
        <time>2023-06-11T09:47:24.000Z</time>
      </trkpt>
      <trkpt lat="38.488125" lon="-78.109859">
        <ele>174.123678</ele>
        <time>2023-06-11T09:47:33.000Z</time>
      </trkpt>
      <trkpt lat="38.48781" lon="-78.109464">
        <ele>176.414642</ele>
        <time>2023-06-11T09:47:38.000Z</time>
      </trkpt>
      <trkpt lat="38.487104" lon="-78.108598">
        <ele>179.253629</ele>
        <time>2023-06-11T09:47:49.000Z</time>
      </trkpt>
      <trkpt lat="38.486712" lon="-78.108086">
        <ele>180.180986</ele>
        <time>2023-06-11T09:47:55.000Z</time>
      </trkpt>
      <trkpt lat="38.486425" lon="-78.107671">
        <ele>180.923754</ele>
        <time>2023-06-11T09:48:00.000Z</time>
      </trkpt>
      <trkpt lat="38.486314" lon="-78.107493">
        <ele>181.124229</ele>
        <time>2023-06-11T09:48:02.000Z</time>
      </trkpt>
      <trkpt lat="38.4862" lon="-78.107161">
        <ele>180.970942</ele>
        <time>2023-06-11T09:48:05.000Z</time>
      </trkpt>
      <trkpt lat="38.486168" lon="-78.106922">
        <ele>180.871009</ele>
        <time>2023-06-11T09:48:07.000Z</time>
      </trkpt>
      <trkpt lat="38.486192" lon="-78.106419">
        <ele>180.657349</ele>
        <time>2023-06-11T09:48:11.000Z</time>
      </trkpt>
      <trkpt lat="38.486265" lon="-78.105984">
        <ele>180.472592</ele>
        <time>2023-06-11T09:48:15.000Z</time>
      </trkpt>
      <trkpt lat="38.486358" lon="-78.105525">
        <ele>180.270798</ele>
        <time>2023-06-11T09:48:19.000Z</time>
      </trkpt>
      <trkpt lat="38.486388" lon="-78.105406">
        <ele>180.221216</ele>
        <time>2023-06-11T09:48:20.000Z</time>
      </trkpt>
      <trkpt lat="38.486568" lon="-78.104936">
        <ele>179.741326</ele>
        <time>2023-06-11T09:48:25.000Z</time>
      </trkpt>
      <trkpt lat="38.486819" lon="-78.104428">
        <ele>179.130585</ele>
        <time>2023-06-11T09:48:30.000Z</time>
      </trkpt>
      <trkpt lat="38.486935" lon="-78.104083">
        <ele>178.745254</ele>
        <time>2023-06-11T09:48:33.000Z</time>
      </trkpt>
      <trkpt lat="38.487012" lon="-78.103239">
        <ele>177.862196</ele>
        <time>2023-06-11T09:48:40.000Z</time>
      </trkpt>
      <trkpt lat="38.487044" lon="-78.102964">
        <ele>177.466008</ele>
        <time>2023-06-11T09:48:42.000Z</time>
      </trkpt>
      <trkpt lat="38.487252" lon="-78.102428">
        <ele>176.549872</ele>
        <time>2023-06-11T09:48:47.000Z</time>
      </trkpt>
      <trkpt lat="38.487611" lon="-78.101663">
        <ele>175.173245</ele>
        <time>2023-06-11T09:48:55.000Z</time>
      </trkpt>
      <trkpt lat="38.487856" lon="-78.10119">
        <ele>174.295681</ele>
        <time>2023-06-11T09:49:00.000Z</time>
      </trkpt>
      <trkpt lat="38.4879" lon="-78.101102">
        <ele>174.163585</ele>
        <time>2023-06-11T09:49:01.000Z</time>
      </trkpt>
      <trkpt lat="38.489076" lon="-78.099315">
        <ele>170.917615</ele>
        <time>2023-06-11T09:49:21.000Z</time>
      </trkpt>
      <trkpt lat="38.489287" lon="-78.098925">
        <ele>170.524193</ele>
        <time>2023-06-11T09:49:25.000Z</time>
      </trkpt>
      <trkpt lat="38.489403" lon="-78.098597">
        <ele>170.222113</ele>
        <time>2023-06-11T09:49:28.000Z</time>
      </trkpt>
      <trkpt lat="38.489453" lon="-78.098263">
        <ele>169.926727</ele>
        <time>2023-06-11T09:49:31.000Z</time>
      </trkpt>
      <trkpt lat="38.489445" lon="-78.098031">
        <ele>169.740472</ele>
        <time>2023-06-11T09:49:33.000Z</time>
      </trkpt>
      <trkpt lat="38.489436" lon="-78.097541">
        <ele>169.32296</ele>
        <time>2023-06-11T09:49:37.000Z</time>
      </trkpt>
      <trkpt lat="38.489496" lon="-78.096984">
        <ele>168.793532</ele>
        <time>2023-06-11T09:49:42.000Z</time>
      </trkpt>
      <trkpt lat="38.489559" lon="-78.096565">
        <ele>168.35011</ele>
        <time>2023-06-11T09:49:46.000Z</time>
      </trkpt>
      <trkpt lat="38.489542" lon="-78.095855">
        <ele>167.595806</ele>
        <time>2023-06-11T09:49:52.000Z</time>
      </trkpt>
      <trkpt lat="38.489374" lon="-78.094069">
        <ele>165.481338</ele>
        <time>2023-06-11T09:50:08.000Z</time>
      </trkpt>
      <trkpt lat="38.489123" lon="-78.091517">
        <ele>162.863646</ele>
        <time>2023-06-11T09:50:30.000Z</time>
      </trkpt>
      <trkpt lat="38.489089" lon="-78.09103">
        <ele>162.518473</ele>
        <time>2023-06-11T09:50:34.000Z</time>
      </trkpt>
      <trkpt lat="38.489116" lon="-78.090701">
        <ele>162.298762</ele>
        <time>2023-06-11T09:50:37.000Z</time>
      </trkpt>
      <trkpt lat="38.489195" lon="-78.090408">
        <ele>162.1189</ele>
        <time>2023-06-11T09:50:40.000Z</time>
      </trkpt>
      <trkpt lat="38.489283" lon="-78.090196">
        <ele>162.289447</ele>
        <time>2023-06-11T09:50:42.000Z</time>
      </trkpt>
      <trkpt lat="38.489466" lon="-78.089844">
        <ele>162.614497</ele>
        <time>2023-06-11T09:50:46.000Z</time>
      </trkpt>
      <trkpt lat="38.489587" lon="-78.089699">
        <ele>162.75353</ele>
        <time>2023-06-11T09:50:48.000Z</time>
      </trkpt>
      <trkpt lat="38.489874" lon="-78.089456">
        <ele>163.084134</ele>
        <time>2023-06-11T09:50:52.000Z</time>
      </trkpt>
      <trkpt lat="38.490484" lon="-78.088994">
        <ele>163.757901</ele>
        <time>2023-06-11T09:51:00.000Z</time>
      </trkpt>
      <trkpt lat="38.490778" lon="-78.088667">
        <ele>164.120835</ele>
        <time>2023-06-11T09:51:04.000Z</time>
      </trkpt>
      <trkpt lat="38.490904" lon="-78.088489">
        <ele>164.297818</ele>
        <time>2023-06-11T09:51:06.000Z</time>
      </trkpt>
      <trkpt lat="38.490986" lon="-78.088327">
        <ele>164.444675</ele>
        <time>2023-06-11T09:51:08.000Z</time>
      </trkpt>
      <trkpt lat="38.491159" lon="-78.087865">
        <ele>164.827441</ele>
        <time>2023-06-11T09:51:12.000Z</time>
      </trkpt>
      <trkpt lat="38.491448" lon="-78.087001">
        <ele>165.513178</ele>
        <time>2023-06-11T09:51:20.000Z</time>
      </trkpt>
      <trkpt lat="38.491531" lon="-78.086701">
        <ele>165.676577</ele>
        <time>2023-06-11T09:51:23.000Z</time>
      </trkpt>
      <trkpt lat="38.491526" lon="-78.086677">
        <ele>165.694022</ele>
        <time>2023-06-11T09:51:23.000Z</time>
      </trkpt>
      <trkpt lat="38.491563" lon="-78.086351">
        <ele>165.868835</ele>
        <time>2023-06-11T09:51:26.000Z</time>
      </trkpt>
      <trkpt lat="38.49158" lon="-78.086038">
        <ele>166.033105</ele>
        <time>2023-06-11T09:51:29.000Z</time>
      </trkpt>
      <trkpt lat="38.491491" lon="-78.08368">
        <ele>166.928997</ele>
        <time>2023-06-11T09:51:50.000Z</time>
      </trkpt>
      <trkpt lat="38.491458" lon="-78.0834">
        <ele>166.98505</ele>
        <time>2023-06-11T09:51:52.000Z</time>
      </trkpt>
      <trkpt lat="38.491383" lon="-78.0832">
        <ele>167.028311</ele>
        <time>2023-06-11T09:51:54.000Z</time>
      </trkpt>
      <trkpt lat="38.491342" lon="-78.083069">
        <ele>167.058425</ele>
        <time>2023-06-11T09:51:55.000Z</time>
      </trkpt>
      <trkpt lat="38.49099" lon="-78.082281">
        <ele>166.945427</ele>
        <time>2023-06-11T09:52:03.000Z</time>
      </trkpt>
      <trkpt lat="38.490804" lon="-78.081766">
        <ele>166.568392</ele>
        <time>2023-06-11T09:52:08.000Z</time>
      </trkpt>
      <trkpt lat="38.490657" lon="-78.081245">
        <ele>166.205735</ele>
        <time>2023-06-11T09:52:13.000Z</time>
      </trkpt>
      <trkpt lat="38.4906" lon="-78.081069">
        <ele>166.080321</ele>
        <time>2023-06-11T09:52:15.000Z</time>
      </trkpt>
      <trkpt lat="38.490595" lon="-78.08105">
        <ele>166.062706</ele>
        <time>2023-06-11T09:52:15.000Z</time>
      </trkpt>
      <trkpt lat="38.49041" lon="-78.080446">
        <ele>165.641203</ele>
        <time>2023-06-11T09:52:21.000Z</time>
      </trkpt>
      <trkpt lat="38.490266" lon="-78.07998">
        <ele>165.458503</ele>
        <time>2023-06-11T09:52:25.000Z</time>
      </trkpt>
      <trkpt lat="38.490156" lon="-78.079515">
        <ele>165.288875</ele>
        <time>2023-06-11T09:52:29.000Z</time>
      </trkpt>
      <trkpt lat="38.49004" lon="-78.078681">
        <ele>164.980883</ele>
        <time>2023-06-11T09:52:36.000Z</time>
      </trkpt>
      <trkpt lat="38.490027" lon="-78.078521">
        <ele>164.924261</ele>
        <time>2023-06-11T09:52:37.000Z</time>
      </trkpt>
      <trkpt lat="38.48969" lon="-78.078481">
        <ele>164.550927</ele>
        <time>2023-06-11T09:52:41.000Z</time>
      </trkpt>
      <trkpt lat="38.489514" lon="-78.078398">
        <ele>164.150846</ele>
        <time>2023-06-11T09:52:43.000Z</time>
      </trkpt>
      <trkpt lat="38.489165" lon="-78.078113">
        <ele>163.268856</ele>
        <time>2023-06-11T09:52:48.000Z</time>
      </trkpt>
      <trkpt lat="38.488735" lon="-78.077663">
        <ele>162.078978</ele>
        <time>2023-06-11T09:52:54.000Z</time>
      </trkpt>
      <trkpt lat="38.488078" lon="-78.076963">
        <ele>160.21404</ele>
        <time>2023-06-11T09:53:04.000Z</time>
      </trkpt>
      <trkpt lat="38.487396" lon="-78.076266">
        <ele>158.391311</ele>
        <time>2023-06-11T09:53:14.000Z</time>
      </trkpt>
      <trkpt lat="38.487128" lon="-78.076081">
        <ele>157.732384</ele>
        <time>2023-06-11T09:53:17.000Z</time>
      </trkpt>
      <trkpt lat="38.486699" lon="-78.075885">
        <ele>157.217096</ele>
        <time>2023-06-11T09:53:22.000Z</time>
      </trkpt>
      <trkpt lat="38.486485" lon="-78.075712">
        <ele>157.362974</ele>
        <time>2023-06-11T09:53:25.000Z</time>
      </trkpt>
      <trkpt lat="38.486384" lon="-78.075535">
        <ele>157.460215</ele>
        <time>2023-06-11T09:53:27.000Z</time>
      </trkpt>
      <trkpt lat="38.486313" lon="-78.075403">
        <ele>157.528357</ele>
        <time>2023-06-11T09:53:28.000Z</time>
      </trkpt>
      <trkpt lat="38.486243" lon="-78.07498">
        <ele>157.721077</ele>
        <time>2023-06-11T09:53:32.000Z</time>
      </trkpt>
      <trkpt lat="38.486157" lon="-78.0741">
        <ele>158.117984</ele>
        <time>2023-06-11T09:53:40.000Z</time>
      </trkpt>
      <trkpt lat="38.486013" lon="-78.073548">
        <ele>158.074752</ele>
        <time>2023-06-11T09:53:45.000Z</time>
      </trkpt>
      <trkpt lat="38.485866" lon="-78.073166">
        <ele>158.015246</ele>
        <time>2023-06-11T09:53:49.000Z</time>
      </trkpt>
      <trkpt lat="38.485618" lon="-78.072785">
        <ele>157.950132</ele>
        <time>2023-06-11T09:53:53.000Z</time>
      </trkpt>
      <trkpt lat="38.485385" lon="-78.072493">
        <ele>157.893944</ele>
        <time>2023-06-11T09:53:57.000Z</time>
      </trkpt>
      <trkpt lat="38.484845" lon="-78.071808">
        <ele>156.685953</ele>
        <time>2023-06-11T09:54:05.000Z</time>
      </trkpt>
      <trkpt lat="38.484574" lon="-78.07148">
        <ele>155.619515</ele>
        <time>2023-06-11T09:54:09.000Z</time>
      </trkpt>
      <trkpt lat="38.484507" lon="-78.071372">
        <ele>155.325845</ele>
        <time>2023-06-11T09:54:10.000Z</time>
      </trkpt>
      <trkpt lat="38.484167" lon="-78.070873">
        <ele>153.861907</ele>
        <time>2023-06-11T09:54:16.000Z</time>
      </trkpt>
      <trkpt lat="38.483954" lon="-78.070511">
        <ele>152.843294</ele>
        <time>2023-06-11T09:54:20.000Z</time>
      </trkpt>
      <trkpt lat="38.4837" lon="-78.070102">
        <ele>151.576084</ele>
        <time>2023-06-11T09:54:25.000Z</time>
      </trkpt>
      <trkpt lat="38.483451" lon="-78.069661">
        <ele>150.296917</ele>
        <time>2023-06-11T09:54:30.000Z</time>
      </trkpt>
      <trkpt lat="38.483053" lon="-78.068763">
        <ele>147.80804</ele>
        <time>2023-06-11T09:54:39.000Z</time>
      </trkpt>
      <trkpt lat="38.482917" lon="-78.068917">
        <ele>147.223638</ele>
        <time>2023-06-11T09:54:41.000Z</time>
      </trkpt>
      <trkpt lat="38.482885" lon="-78.068938">
        <ele>147.144061</ele>
        <time>2023-06-11T09:54:41.000Z</time>
      </trkpt>
      <trkpt lat="38.482804" lon="-78.068784">
        <ele>146.726935</ele>
        <time>2023-06-11T09:54:43.000Z</time>
      </trkpt>
      <trkpt lat="38.482691" lon="-78.068801">
        <ele>146.454213</ele>
        <time>2023-06-11T09:54:44.000Z</time>
      </trkpt>
      <trkpt lat="38.482599" lon="-78.068804">
        <ele>146.183963</ele>
        <time>2023-06-11T09:54:45.000Z</time>
      </trkpt>
      <trkpt lat="38.482255" lon="-78.068802">
        <ele>145.240944</ele>
        <time>2023-06-11T09:54:49.000Z</time>
      </trkpt>
      <trkpt lat="38.482224" lon="-78.068817">
        <ele>145.187068</ele>
        <time>2023-06-11T09:54:49.000Z</time>
      </trkpt>
      <trkpt lat="38.482077" lon="-78.068817">
        <ele>144.78237</ele>
        <time>2023-06-11T09:54:51.000Z</time>
      </trkpt>
      <trkpt lat="38.481432" lon="-78.068871">
        <ele>143.054779</ele>
        <time>2023-06-11T09:54:58.000Z</time>
      </trkpt>
      <trkpt lat="38.481353" lon="-78.068884">
        <ele>142.838207</ele>
        <time>2023-06-11T09:54:59.000Z</time>
      </trkpt>
      <trkpt lat="38.481181" lon="-78.068896">
        <ele>142.380032089</ele>
        <time>2023-06-11T09:55:01.000Z</time>
      </trkpt>
      <trkpt lat="38.481155" lon="-78.068891">
        <ele>142.310096917</ele>
        <time>2023-06-11T09:55:01.000Z</time>
      </trkpt>
      <trkpt lat="38.480995" lon="-78.068938">
        <ele>141.873415141</ele>
        <time>2023-06-11T09:55:03.000Z</time>
      </trkpt>
      <trkpt lat="38.480989" lon="-78.068928">
        <ele>141.847180953</ele>
        <time>2023-06-11T09:55:03.000Z</time>
      </trkpt>
      <trkpt lat="38.480877" lon="-78.068975">
        <ele>141.533616235</ele>
        <time>2023-06-11T09:55:04.000Z</time>
      </trkpt>
      <trkpt lat="38.480822" lon="-78.068989">
        <ele>141.384448817</ele>
        <time>2023-06-11T09:55:05.000Z</time>
      </trkpt>
      <trkpt lat="38.480629" lon="-78.069091">
        <ele>140.828900449</ele>
        <time>2023-06-11T09:55:07.000Z</time>
      </trkpt>
      <trkpt lat="38.480335" lon="-78.06925">
        <ele>139.979712758</ele>
        <time>2023-06-11T09:55:11.000Z</time>
      </trkpt>
      <trkpt lat="38.480321" lon="-78.069256">
        <ele>139.940435127</ele>
        <time>2023-06-11T09:55:11.000Z</time>
      </trkpt>
      <trkpt lat="38.480268" lon="-78.069274">
        <ele>139.794566265</ele>
        <time>2023-06-11T09:55:12.000Z</time>
      </trkpt>
      <trkpt lat="38.480209" lon="-78.06926">
        <ele>139.634951017</ele>
        <time>2023-06-11T09:55:13.000Z</time>
      </trkpt>
      <trkpt lat="38.48007" lon="-78.069197">
        <ele>139.242651066</ele>
        <time>2023-06-11T09:55:15.000Z</time>
      </trkpt>
      <trkpt lat="38.479977" lon="-78.069177">
        <ele>138.991804731</ele>
        <time>2023-06-11T09:55:16.000Z</time>
      </trkpt>
      <trkpt lat="38.479982" lon="-78.06918">
        <ele>138.977111569</ele>
        <time>2023-06-11T09:55:16.000Z</time>
      </trkpt>
      <trkpt lat="38.47994" lon="-78.069237">
        <ele>138.81412065</ele>
        <time>2023-06-11T09:55:17.000Z</time>
      </trkpt>
    </trkseg>
  </trk>
</gpx>

<!--
Performance optimized by W3 Total Cache. Learn more: https://www.boldgrid.com/w3-total-cache/?utm_source=w3tc&utm_medium=footer_comment&utm_campaign=free_plugin

Page Caching using Disk: Enhanced{w3tc_pagecache_reject_reason} 

Served from: www.aquabike.world @ 2026-05-03 01:28:19 by W3 Total Cache
-->